Observation data for McCamey on 02/24/2019      Previous  Date  Next       Current Mesonet Observations  Soil Data  Daily Summary Page  Observations in Plain Language
KMC4 240600Z 30006KT 05/M10 A3024 RMK A01 T00511095  RH  034%=      5-min Rain = 0
KMC4 240601Z 30006KT 05/M10 A3024 RMK A01 T00511095  RH  034%=      5-min Rain = 0
KMC4 240602Z 30006KT 05/M10 A3024 RMK A01 T00511095  RH  034%=      5-min Rain = 0
KMC4 240603Z 30007KT 05/M10 A3024 RMK A01 T00511095  RH  034%=      5-min Rain = 0
KMC4 240604Z 30006KT 05/M10 A3024 RMK A01 T00511095  RH  034%=      5-min Rain = 0
KMC4 240605Z 30006KT 05/M10 A3024 RMK A01 T00521095  RH  034%=      5-min Rain = 0
KMC4 240606Z 30006KT 05/M10 A3024 RMK A01 T00531096  RH  033%=      5-min Rain = 0
KMC4 240607Z 30006KT 05/M10 A3024 RMK A01 T00531096  RH  033%=      5-min Rain = 0
KMC4 240608Z 30006KT 05/M10 A3024 RMK A01 T00531095  RH  033%=      5-min Rain = 0
KMC4 240609Z 30006KT 05/M10 A3024 RMK A01 T00521096  RH  033%=      5-min Rain = 0
KMC4 240610Z 31007KT 05/M10 A3024 RMK A01 T00521096  RH  034%=      5-min Rain = 0
KMC4 240611Z 31006KT 05/M10 A3024 RMK A01 T00521096  RH  033%=      5-min Rain = 0
KMC4 240612Z 31006KT 05/M10 A3024 RMK A01 T00511096  RH  034%=      5-min Rain = 0
KMC4 240613Z 31006KT 05/M10 A3024 RMK A01 T00511096  RH  034%=      5-min Rain = 0
KMC4 240614Z 30007KT 05/M10 A3024 RMK A01 T00511096  RH  034%=      5-min Rain = 0
KMC4 240615Z 31007KT 05/M10 A3024 RMK A01 T00511095  RH  034%=      5-min Rain = 0
KMC4 240616Z 30008KT 05/M10 A3024 RMK A01 T00511095  RH  034%=      5-min Rain = 0
KMC4 240617Z 30008KT 05/M10 A3024 RMK A01 T00521095  RH  034%=      5-min Rain = 0
KMC4 240618Z 30009KT 05/M10 A3024 RMK A01 T00521096  RH  033%=      5-min Rain = 0
KMC4 240619Z 30008KT 05/M10 A3024 RMK A01 T00531096  RH  033%=      5-min Rain = 0
KMC4 240620Z 31007KT 05/M10 A3024 RMK A01 T00531095  RH  033%=      5-min Rain = 0
KMC4 240621Z 31007KT 05/M10 A3024 RMK A01 T00531095  RH  034%=      5-min Rain = 0
KMC4 240622Z 31007KT 05/M10 A3024 RMK A01 T00531095  RH  034%=      5-min Rain = 0
KMC4 240623Z 31006KT 05/M10 A3024 RMK A01 T00531095  RH  034%=      5-min Rain = 0
KMC4 240624Z 31007KT 05/M10 A3024 RMK A01 T00531095  RH  034%=      5-min Rain = 0
KMC4 240625Z 31007KT 05/M10 A3024 RMK A01 T00531095  RH  034%=      5-min Rain = 0
KMC4 240626Z 31007KT 05/M10 A3024 RMK A01 T00521095  RH  034%=      5-min Rain = 0
KMC4 240627Z 31007KT 05/M09 A3024 RMK A01 T00521094  RH  034%=      5-min Rain = 0
KMC4 240628Z 31006KT 05/M09 A3024 RMK A01 T00521094  RH  034%=      5-min Rain = 0
KMC4 240629Z 31007KT 05/M09 A3024 RMK A01 T00511094  RH  034%=      5-min Rain = 0
KMC4 240630Z 31006KT 05/M09 A3024 RMK A01 T00521093  RH  034%=      5-min Rain = 0
KMC4 240631Z 31006KT 05/M09 A3024 RMK A01 T00521093  RH  034%=      5-min Rain = 0
KMC4 240632Z 31006KT 05/M09 A3024 RMK A01 T00521093  RH  034%=      5-min Rain = 0
KMC4 240633Z 31006KT 05/M09 A3024 RMK A01 T00521093  RH  034%=      5-min Rain = 0
KMC4 240634Z 31006KT 05/M09 A3024 RMK A01 T00531092  RH  034%=      5-min Rain = 0
KMC4 240635Z 31006KT 05/M09 A3024 RMK A01 T00531092  RH  034%=      5-min Rain = 0
KMC4 240636Z 31006KT 05/M09 A3024 RMK A01 T00531092  RH  034%=      5-min Rain = 0
KMC4 240637Z 31006KT 05/M09 A3024 RMK A01 T00521092  RH  035%=      5-min Rain = 0
KMC4 240638Z 31006KT 05/M09 A3024 RMK A01 T00521091  RH  035%=      5-min Rain = 0
KMC4 240639Z 31006KT 05/M09 A3024 RMK A01 T00521091  RH  035%=      5-min Rain = 0
KMC4 240640Z 31005KT 05/M09 A3024 RMK A01 T00521091  RH  035%=      5-min Rain = 0
KMC4 240641Z 31005KT 05/M09 A3024 RMK A01 T00521091  RH  035%=      5-min Rain = 0
KMC4 240642Z 31005KT 05/M09 A3024 RMK A01 T00521091  RH  035%=      5-min Rain = 0
KMC4 240643Z 31004KT 05/M09 A3024 RMK A01 T00511091  RH  035%=      5-min Rain = 0
KMC4 240644Z 31004KT 05/M09 A3024 RMK A01 T00511091  RH  035%=      5-min Rain = 0
KMC4 240645Z 31004KT 05/M09 A3025 RMK A01 T00501091  RH  035%=      5-min Rain = 0
KMC4 240646Z 30004KT 05/M09 A3025 RMK A01 T00481092  RH  035%=      5-min Rain = 0
KMC4 240647Z 30004KT 04/M09 A3025 RMK A01 T00441093  RH  036%=      5-min Rain = 0
KMC4 240648Z 29003KT 04/M10 A3025 RMK A01 T00371095  RH  037%=      5-min Rain = 0
KMC4 240649Z 29003KT 03/M10 A3025 RMK A01 T00311098  RH  038%=      5-min Rain = 0
KMC4 240650Z 29003KT 03/M10 A3025 RMK A01 T00261098  RH  040%=      5-min Rain = 0
KMC4 240651Z 29002KT 02/M10 A3025 RMK A01 T00221097  RH  041%=      5-min Rain = 0
KMC4 240652Z 29003KT 02/M10 A3025 RMK A01 T00191097  RH  042%=      5-min Rain = 0
KMC4 240653Z 29003KT 02/M10 A3025 RMK A01 T00181096  RH  043%=      5-min Rain = 0
KMC4 240654Z 28002KT 02/M10 A3025 RMK A01 T00171095  RH  043%=      5-min Rain = 0
KMC4 240655Z 28002KT 02/M10 A3025 RMK A01 T00171095  RH  043%=      5-min Rain = 0
KMC4 240656Z 29002KT 02/M10 A3025 RMK A01 T00161095  RH  043%=      5-min Rain = 0
KMC4 240657Z 28002KT 02/M10 A3025 RMK A01 T00161096  RH  043%=      5-min Rain = 0
KMC4 240658Z 28002KT 02/M10 A3025 RMK A01 T00161096  RH  043%=      5-min Rain = 0
KMC4 240659Z 27002KT 02/M10 A3025 RMK A01 T00151097  RH  043%=      5-min Rain = 0
KMC4 240700Z 27002KT 02/M10 A3026 RMK A01 T00151096  RH  043%=      5-min Rain = 0
KMC4 240701Z 27002KT 02/M10 A3026 RMK A01 T00151095  RH  044%=      5-min Rain = 0
KMC4 240702Z 27002KT 02/M10 A3026 RMK A01 T00151096  RH  044%=      5-min Rain = 0
KMC4 240703Z 28002KT 02/M10 A3026 RMK A01 T00151096  RH  043%=      5-min Rain = 0
KMC4 240704Z 27002KT 02/M10 A3026 RMK A01 T00151096  RH  043%=      5-min Rain = 0
KMC4 240705Z 25002KT 02/M10 A3026 RMK A01 T00161096  RH  043%=      5-min Rain = 0
KMC4 240706Z 24002KT 02/M10 A3026 RMK A01 T00161095  RH  043%=      5-min Rain = 0
KMC4 240707Z 23002KT 02/M10 A3026 RMK A01 T00161095  RH  044%=      5-min Rain = 0
KMC4 240708Z 23002KT 02/M10 A3026 RMK A01 T00161095  RH  043%=      5-min Rain = 0
KMC4 240709Z 23002KT 02/M09 A3026 RMK A01 T00171094  RH  043%=      5-min Rain = 0
KMC4 240710Z 23002KT 02/M09 A3026 RMK A01 T00171094  RH  043%=      5-min Rain = 0
KMC4 240711Z 23002KT 02/M09 A3026 RMK A01 T00181094  RH  043%=      5-min Rain = 0
KMC4 240712Z 23002KT 02/M09 A3026 RMK A01 T00191093  RH  043%=      5-min Rain = 0
KMC4 240713Z 24002KT 02/M09 A3026 RMK A01 T00201093  RH  043%=      5-min Rain = 0
KMC4 240714Z 24002KT 02/M09 A3026 RMK A01 T00201093  RH  043%=      5-min Rain = 0
KMC4 240715Z 25002KT 02/M09 A3026 RMK A01 T00201094  RH  043%=      5-min Rain = 0
KMC4 240716Z 25002KT 02/M09 A3026 RMK A01 T00201094  RH  043%=      5-min Rain = 0
KMC4 240717Z 26002KT 02/M09 A3026 RMK A01 T00201093  RH  043%=      5-min Rain = 0
KMC4 240718Z 26002KT 02/M09 A3026 RMK A01 T00201093  RH  043%=      5-min Rain = 0
KMC4 240719Z 26002KT 02/M09 A3026 RMK A01 T00211093  RH  043%=      5-min Rain = 0
KMC4 240720Z 26002KT 02/M09 A3026 RMK A01 T00221092  RH  042%=      5-min Rain = 0
KMC4 240721Z 26002KT 02/M09 A3026 RMK A01 T00241092  RH  042%=      5-min Rain = 0
KMC4 240722Z 27003KT 03/M09 A3026 RMK A01 T00251092  RH  042%=      5-min Rain = 0
KMC4 240723Z 26003KT 03/M09 A3026 RMK A01 T00261091  RH  042%=      5-min Rain = 0
KMC4 240724Z 26002KT 03/M09 A3026 RMK A01 T00261091  RH  042%=      5-min Rain = 0
KMC4 240725Z 27002KT 03/M09 A3026 RMK A01 T00261091  RH  042%=      5-min Rain = 0
KMC4 240726Z 27002KT 03/M09 A3026 RMK A01 T00261092  RH  041%=      5-min Rain = 0
KMC4 240727Z 27003KT 03/M09 A3026 RMK A01 T00271092  RH  041%=      5-min Rain = 0
KMC4 240728Z 27002KT 03/M09 A3027 RMK A01 T00271091  RH  041%=      5-min Rain = 0
KMC4 240729Z 27002KT 03/M09 A3027 RMK A01 T00281090  RH  042%=      5-min Rain = 0
KMC4 240730Z 28001KT 03/M09 A3027 RMK A01 T00281090  RH  042%=      5-min Rain = 0
KMC4 240731Z 28002KT 03/M09 A3027 RMK A01 T00281090  RH  042%=      5-min Rain = 0
KMC4 240732Z 28002KT 03/M09 A3027 RMK A01 T00281090  RH  042%=      5-min Rain = 0
KMC4 240733Z 27002KT 03/M09 A3027 RMK A01 T00281090  RH  042%=      5-min Rain = 0
KMC4 240734Z 27002KT 03/M09 A3027 RMK A01 T00281090  RH  041%=      5-min Rain = 0
KMC4 240735Z 27003KT 03/M09 A3027 RMK A01 T00291090  RH  041%=      5-min Rain = 0
KMC4 240736Z 27002KT 03/M09 A3027 RMK A01 T00291089  RH  041%=      5-min Rain = 0
KMC4 240737Z 28003KT 03/M09 A3027 RMK A01 T00301089  RH  041%=      5-min Rain = 0
KMC4 240738Z 28003KT 03/M09 A3027 RMK A01 T00321090  RH  041%=      5-min Rain = 0
KMC4 240739Z 28003KT 03/M09 A3027 RMK A01 T00331090  RH  040%=      5-min Rain = 0
KMC4 240740Z 28003KT 03/M09 A3027 RMK A01 T00341089  RH  040%=      5-min Rain = 0
KMC4 240741Z 28003KT 04/M09 A3027 RMK A01 T00351090  RH  040%=      5-min Rain = 0
KMC4 240742Z 28004KT 04/M09 A3027 RMK A01 T00351090  RH  040%=      5-min Rain = 0
KMC4 240743Z 29004KT 04/M09 A3027 RMK A01 T00351090  RH  039%=      5-min Rain = 0
KMC4 240744Z 29004KT 04/M09 A3027 RMK A01 T00361090  RH  039%=      5-min Rain = 0
KMC4 240745Z 29004KT 04/M09 A3027 RMK A01 T00361089  RH  039%=      5-min Rain = 0
KMC4 240746Z 29003KT 04/M09 A3027 RMK A01 T00361089  RH  039%=      5-min Rain = 0
KMC4 240747Z 29003KT 04/M09 A3027 RMK A01 T00361089  RH  040%=      5-min Rain = 0
KMC4 240748Z 28002KT 04/M09 A3027 RMK A01 T00361088  RH  040%=      5-min Rain = 0
KMC4 240749Z 28002KT 04/M09 A3027 RMK A01 T00351087  RH  040%=      5-min Rain = 0
KMC4 240750Z 27001KT 03/M09 A3027 RMK A01 T00341088  RH  041%=      5-min Rain = 0
KMC4 240751Z 18000KT 03/M09 A3027 RMK A01 T00321087  RH  041%=      5-min Rain = 0
KMC4 240752Z 17001KT 03/M09 A3027 RMK A01 T00281086  RH  043%=      5-min Rain = 0
KMC4 240753Z 16001KT 02/M09 A3027 RMK A01 T00221089  RH  044%=      5-min Rain = 0
KMC4 240754Z 15001KT 02/M09 A3027 RMK A01 T00181088  RH  045%=      5-min Rain = 0
KMC4 240755Z 15001KT 02/M09 A3027 RMK A01 T00171087  RH  046%=      5-min Rain = 0
KMC4 240756Z 14001KT 02/M09 A3027 RMK A01 T00171086  RH  046%=      5-min Rain = 0
KMC4 240757Z 12001KT 02/M09 A3027 RMK A01 T00191085  RH  046%=      5-min Rain = 0
KMC4 240758Z 12001KT 02/M08 A3027 RMK A01 T00191084  RH  046%=      5-min Rain = 0
KMC4 240759Z 11000KT 02/M09 A3027 RMK A01 T00201085  RH  046%=      5-min Rain = 0
KMC4 240800Z 13000KT 02/M08 A3027 RMK A01 T00211084  RH  046%=      5-min Rain = 0
KMC4 240801Z 00000KT 02/M09 A3027 RMK A01 T00231085  RH  045%=      5-min Rain = 0
KMC4 240802Z 00000KT 02/M09 A3027 RMK A01 T00241085  RH  044%=      5-min Rain = 0
KMC4 240803Z 00000KT 03/M09 A3027 RMK A01 T00251085  RH  044%=      5-min Rain = 0
KMC4 240804Z 00000KT 03/M09 A3027 RMK A01 T00251085  RH  044%=      5-min Rain = 0
KMC4 240805Z 00000KT 03/M09 A3027 RMK A01 T00261085  RH  044%=      5-min Rain = 0
KMC4 240806Z 14000KT 03/M09 A3027 RMK A01 T00261085  RH  044%=      5-min Rain = 0
KMC4 240807Z 14001KT 03/M09 A3027 RMK A01 T00261085  RH  044%=      5-min Rain = 0
KMC4 240808Z 12000KT 03/M08 A3027 RMK A01 T00261084  RH  044%=      5-min Rain = 0
KMC4 240809Z 10001KT 03/M08 A3027 RMK A01 T00251083  RH  045%=      5-min Rain = 0
KMC4 240810Z 10001KT 02/M08 A3027 RMK A01 T00241084  RH  045%=      5-min Rain = 0
KMC4 240811Z 10001KT 02/M08 A3027 RMK A01 T00231084  RH  045%=      5-min Rain = 0
KMC4 240812Z 08001KT 02/M09 A3027 RMK A01 T00231085  RH  045%=      5-min Rain = 0
KMC4 240813Z 09001KT 02/M09 A3027 RMK A01 T00241086  RH  044%=      5-min Rain = 0
KMC4 240814Z 10001KT 03/M09 A3027 RMK A01 T00251087  RH  043%=      5-min Rain = 0
KMC4 240815Z 09002KT 03/M09 A3027 RMK A01 T00261087  RH  043%=      5-min Rain = 0
KMC4 240816Z 09003KT 03/M09 A3027 RMK A01 T00261086  RH  043%=      5-min Rain = 0
KMC4 240817Z 11003KT 03/M09 A3027 RMK A01 T00261085  RH  044%=      5-min Rain = 0
KMC4 240818Z 11003KT 02/M09 A3027 RMK A01 T00241088  RH  043%=      5-min Rain = 0
KMC4 240819Z 11002KT 02/M09 A3027 RMK A01 T00231088  RH  044%=      5-min Rain = 0
KMC4 240820Z 12002KT 02/M09 A3027 RMK A01 T00221089  RH  044%=      5-min Rain = 0
KMC4 240821Z 12002KT 02/M09 A3027 RMK A01 T00221089  RH  044%=      5-min Rain = 0
KMC4 240822Z 12002KT 02/M09 A3027 RMK A01 T00221088  RH  044%=      5-min Rain = 0
KMC4 240823Z 14000KT 02/M09 A3027 RMK A01 T00221089  RH  044%=      5-min Rain = 0
KMC4 240824Z 11002KT 02/M09 A3027 RMK A01 T00211089  RH  044%=      5-min Rain = 0
KMC4 240825Z 12002KT 02/M09 A3027 RMK A01 T00211089  RH  044%=      5-min Rain = 0
KMC4 240826Z 09001KT 02/M09 A3027 RMK A01 T00211089  RH  044%=      5-min Rain = 0
KMC4 240827Z 10001KT 02/M09 A3027 RMK A01 T00201089  RH  044%=      5-min Rain = 0
KMC4 240828Z 09002KT 02/M09 A3027 RMK A01 T00201089  RH  044%=      5-min Rain = 0
KMC4 240829Z 08002KT 02/M09 A3027 RMK A01 T00191088  RH  045%=      5-min Rain = 0
KMC4 240830Z 06002KT 02/M09 A3027 RMK A01 T00201086  RH  045%=      5-min Rain = 0
KMC4 240831Z 06002KT 02/M09 A3027 RMK A01 T00191087  RH  045%=      5-min Rain = 0
KMC4 240832Z 07002KT 02/M09 A3027 RMK A01 T00191088  RH  045%=      5-min Rain = 0
KMC4 240833Z 05003KT 02/M09 A3027 RMK A01 T00181089  RH  045%=      5-min Rain = 0
KMC4 240834Z 05002KT 02/M09 A3027 RMK A01 T00181089  RH  045%=      5-min Rain = 0
KMC4 240835Z 06002KT 02/M09 A3027 RMK A01 T00171090  RH  045%=      5-min Rain = 0
KMC4 240836Z 06002KT 02/M09 A3027 RMK A01 T00181090  RH  045%=      5-min Rain = 0
KMC4 240837Z 04002KT 02/M09 A3027 RMK A01 T00181089  RH  045%=      5-min Rain = 0
KMC4 240838Z 05002KT 02/M09 A3027 RMK A01 T00181089  RH  045%=      5-min Rain = 0
KMC4 240839Z 05002KT 02/M09 A3028 RMK A01 T00181090  RH  045%=      5-min Rain = 0
KMC4 240840Z 05003KT 02/M09 A3028 RMK A01 T00181090  RH  045%=      5-min Rain = 0
KMC4 240841Z 05002KT 02/M09 A3028 RMK A01 T00181090  RH  045%=      5-min Rain = 0
KMC4 240842Z 04002KT 02/M09 A3028 RMK A01 T00181090  RH  045%=      5-min Rain = 0
KMC4 240843Z 03001KT 02/M09 A3028 RMK A01 T00181090  RH  045%=      5-min Rain = 0
KMC4 240844Z 02001KT 02/M09 A3028 RMK A01 T00171090  RH  045%=      5-min Rain = 0
KMC4 240845Z 02001KT 02/M09 A3028 RMK A01 T00171089  RH  045%=      5-min Rain = 0
KMC4 240846Z 02002KT 02/M09 A3028 RMK A01 T00171089  RH  045%=      5-min Rain = 0
KMC4 240847Z 36001KT 02/M09 A3028 RMK A01 T00161088  RH  046%=      5-min Rain = 0
KMC4 240848Z 02000KT 02/M09 A3028 RMK A01 T00151088  RH  046%=      5-min Rain = 0
KMC4 240849Z 32000KT 01/M09 A3028 RMK A01 T00141089  RH  046%=      5-min Rain = 0
KMC4 240850Z 00000KT 02/M09 A3028 RMK A01 T00151089  RH  046%=      5-min Rain = 0
KMC4 240851Z 00000KT 02/M09 A3028 RMK A01 T00161089  RH  046%=      5-min Rain = 0
KMC4 240852Z 00000KT 02/M09 A3028 RMK A01 T00161090  RH  045%=      5-min Rain = 0
KMC4 240853Z 05001KT 02/M09 A3028 RMK A01 T00161089  RH  045%=      5-min Rain = 0
KMC4 240854Z 05002KT 02/M09 A3028 RMK A01 T00161088  RH  046%=      5-min Rain = 0
KMC4 240855Z 06002KT 02/M09 A3028 RMK A01 T00161087  RH  046%=      5-min Rain = 0
KMC4 240856Z 08001KT 02/M09 A3027 RMK A01 T00161088  RH  046%=      5-min Rain = 0
KMC4 240857Z 08001KT 02/M09 A3027 RMK A01 T00151090  RH  046%=      5-min Rain = 0
KMC4 240858Z 10001KT 02/M09 A3027 RMK A01 T00151090  RH  045%=      5-min Rain = 0
KMC4 240859Z 09001KT 02/M09 A3027 RMK A01 T00151090  RH  045%=      5-min Rain = 0
KMC4 240900Z 08002KT 02/M09 A3027 RMK A01 T00151090  RH  045%=      5-min Rain = 0
KMC4 240901Z 07002KT 02/M09 A3027 RMK A01 T00151089  RH  046%=      5-min Rain = 0
KMC4 240902Z 05002KT 02/M09 A3027 RMK A01 T00151088  RH  046%=      5-min Rain = 0
KMC4 240903Z 06002KT 01/M09 A3027 RMK A01 T00141087  RH  047%=      5-min Rain = 0
KMC4 240904Z 06002KT 01/M09 A3027 RMK A01 T00141088  RH  047%=      5-min Rain = 0
KMC4 240905Z 07001KT 01/M09 A3027 RMK A01 T00141089  RH  046%=      5-min Rain = 0
KMC4 240906Z 04001KT 01/M09 A3028 RMK A01 T00141089  RH  046%=      5-min Rain = 0
KMC4 240907Z 03002KT 01/M09 A3028 RMK A01 T00131089  RH  046%=      5-min Rain = 0
KMC4 240908Z 04002KT 01/M09 A3027 RMK A01 T00131090  RH  046%=      5-min Rain = 0
KMC4 240909Z 04001KT 01/M09 A3027 RMK A01 T00131090  RH  046%=      5-min Rain = 0
KMC4 240910Z 04000KT 01/M09 A3027 RMK A01 T00141090  RH  046%=      5-min Rain = 0
KMC4 240911Z 00000KT 02/M09 A3027 RMK A01 T00151090  RH  045%=      5-min Rain = 0
KMC4 240912Z 32001KT 02/M09 A3027 RMK A01 T00161091  RH  045%=      5-min Rain = 0
KMC4 240913Z 32002KT 02/M09 A3027 RMK A01 T00161091  RH  045%=      5-min Rain = 0
KMC4 240914Z 31003KT 02/M09 A3027 RMK A01 T00161090  RH  045%=      5-min Rain = 0
KMC4 240915Z 30003KT 02/M09 A3027 RMK A01 T00151089  RH  046%=      5-min Rain = 0
KMC4 240916Z 29003KT 01/M09 A3027 RMK A01 T00141089  RH  046%=      5-min Rain = 0
KMC4 240917Z 28002KT 01/M09 A3027 RMK A01 T00141089  RH  046%=      5-min Rain = 0
KMC4 240918Z 28002KT 02/M09 A3027 RMK A01 T00151090  RH  045%=      5-min Rain = 0
KMC4 240919Z 29001KT 02/M09 A3027 RMK A01 T00171090  RH  045%=      5-min Rain = 0
KMC4 240920Z 31002KT 02/M09 A3027 RMK A01 T00181090  RH  045%=      5-min Rain = 0
KMC4 240921Z 33002KT 02/M09 A3027 RMK A01 T00191089  RH  045%=      5-min Rain = 0
KMC4 240922Z 34002KT 02/M09 A3027 RMK A01 T00191091  RH  044%=      5-min Rain = 0
KMC4 240923Z 35001KT 02/M09 A3027 RMK A01 T00191088  RH  045%=      5-min Rain = 0
KMC4 240924Z 01002KT 02/M09 A3027 RMK A01 T00171087  RH  046%=      5-min Rain = 0
KMC4 240925Z 01003KT 01/M09 A3027 RMK A01 T00141088  RH  046%=      5-min Rain = 0
KMC4 240926Z 02003KT 01/M09 A3027 RMK A01 T00141089  RH  047%=      5-min Rain = 0
KMC4 240927Z 04004KT 01/M09 A3027 RMK A01 T00141088  RH  047%=      5-min Rain = 0
KMC4 240928Z 04004KT 01/M09 A3027 RMK A01 T00131088  RH  047%=      5-min Rain = 0
KMC4 240929Z 02004KT 01/M09 A3027 RMK A01 T00121088  RH  047%=      5-min Rain = 0
KMC4 240930Z 01003KT 01/M09 A3027 RMK A01 T00121089  RH  047%=      5-min Rain = 0
KMC4 240931Z 36003KT 01/M09 A3027 RMK A01 T00141090  RH  046%=      5-min Rain = 0
KMC4 240932Z 34003KT 02/M09 A3027 RMK A01 T00161090  RH  045%=      5-min Rain = 0
KMC4 240933Z 35002KT 02/M09 A3027 RMK A01 T00171089  RH  045%=      5-min Rain = 0
KMC4 240934Z 36002KT 02/M09 A3027 RMK A01 T00171088  RH  045%=      5-min Rain = 0
KMC4 240935Z 35002KT 02/M09 A3027 RMK A01 T00161089  RH  046%=      5-min Rain = 0
KMC4 240936Z 35003KT 02/M09 A3027 RMK A01 T00151089  RH  046%=      5-min Rain = 0
KMC4 240937Z 34003KT 02/M09 A3027 RMK A01 T00151089  RH  046%=      5-min Rain = 0
KMC4 240938Z 35002KT 02/M09 A3027 RMK A01 T00151088  RH  046%=      5-min Rain = 0
KMC4 240939Z 35002KT 02/M09 A3027 RMK A01 T00151089  RH  046%=      5-min Rain = 0
KMC4 240940Z 35002KT 02/M09 A3027 RMK A01 T00151089  RH  046%=      5-min Rain = 0
KMC4 240941Z 35002KT 02/M09 A3027 RMK A01 T00161090  RH  045%=      5-min Rain = 0
KMC4 240942Z 35001KT 02/M09 A3027 RMK A01 T00171090  RH  045%=      5-min Rain = 0
KMC4 240943Z 35001KT 02/M09 A3027 RMK A01 T00181090  RH  045%=      5-min Rain = 0
KMC4 240944Z 01001KT 02/M09 A3027 RMK A01 T00181089  RH  045%=      5-min Rain = 0
KMC4 240945Z 04000KT 02/M09 A3027 RMK A01 T00181089  RH  045%=      5-min Rain = 0
KMC4 240946Z 14001KT 02/M09 A3027 RMK A01 T00151089  RH  046%=      5-min Rain = 0
KMC4 240947Z 14002KT 01/M09 A3027 RMK A01 T00101089  RH  047%=      5-min Rain = 0
KMC4 240948Z 12003KT 00/M09 A3027 RMK A01 T00031091  RH  049%=      5-min Rain = 0
KMC4 240949Z 12003KT M00/M10 A3027 RMK A01 T10041095  RH  050%=      5-min Rain = 0
KMC4 240950Z 12002KT M01/M10 A3027 RMK A01 T10091096  RH  052%=      5-min Rain = 0
KMC4 240951Z 13002KT M01/M10 A3027 RMK A01 T10121095  RH  053%=      5-min Rain = 0
KMC4 240952Z 12001KT M01/M10 A3027 RMK A01 T10141095  RH  054%=      5-min Rain = 0
KMC4 240953Z 11001KT M02/M10 A3027 RMK A01 T10161095  RH  055%=      5-min Rain = 0
KMC4 240954Z 10001KT M02/M10 A3027 RMK A01 T10171096  RH  055%=      5-min Rain = 0
KMC4 240955Z 09001KT M02/M10 A3027 RMK A01 T10171096  RH  055%=      5-min Rain = 0
KMC4 240956Z 10001KT M02/M10 A3027 RMK A01 T10181096  RH  055%=      5-min Rain = 0
KMC4 240957Z 12001KT M02/M10 A3027 RMK A01 T10181096  RH  055%=      5-min Rain = 0
KMC4 240958Z 13001KT M02/M10 A3027 RMK A01 T10181096  RH  055%=      5-min Rain = 0
KMC4 240959Z 13000KT M02/M10 A3027 RMK A01 T10171096  RH  055%=      5-min Rain = 0
KMC4 241000Z 00000KT M02/M10 A3027 RMK A01 T10171096  RH  055%=      5-min Rain = 0
KMC4 241001Z 00000KT M02/M10 A3027 RMK A01 T10171096  RH  055%=      5-min Rain = 0
KMC4 241002Z 00000KT M02/M10 A3027 RMK A01 T10161095  RH  055%=      5-min Rain = 0
KMC4 241003Z 00000KT M02/M09 A3027 RMK A01 T10151094  RH  055%=      5-min Rain = 0
KMC4 241004Z 27000KT M01/M09 A3027 RMK A01 T10141094  RH  054%=      5-min Rain = 0
KMC4 241005Z 28001KT M01/M09 A3027 RMK A01 T10131092  RH  055%=      5-min Rain = 0
KMC4 241006Z 29001KT M01/M09 A3027 RMK A01 T10141092  RH  055%=      5-min Rain = 0
KMC4 241007Z 30001KT M01/M09 A3027 RMK A01 T10131091  RH  055%=      5-min Rain = 0
KMC4 241008Z 29001KT M01/M09 A3027 RMK A01 T10121088  RH  056%=      5-min Rain = 0
KMC4 241009Z 29001KT M01/M09 A3028 RMK A01 T10101087  RH  056%=      5-min Rain = 0
KMC4 241010Z 29001KT M01/M09 A3028 RMK A01 T10091086  RH  056%=      5-min Rain = 0
KMC4 241011Z 29001KT M01/M09 A3028 RMK A01 T10091087  RH  055%=      5-min Rain = 0
KMC4 241012Z 29000KT M01/M09 A3028 RMK A01 T10081086  RH  055%=      5-min Rain = 0
KMC4 241013Z 00000KT M01/M09 A3028 RMK A01 T10081089  RH  054%=      5-min Rain = 0
KMC4 241014Z 00000KT M01/M09 A3028 RMK A01 T10081089  RH  054%=      5-min Rain = 0
KMC4 241015Z 00000KT M01/M09 A3028 RMK A01 T10091090  RH  054%=      5-min Rain = 0
KMC4 241016Z 00000KT M01/M09 A3028 RMK A01 T10101090  RH  054%=      5-min Rain = 0
KMC4 241017Z 00000KT M01/M09 A3028 RMK A01 T10101090  RH  055%=      5-min Rain = 0
KMC4 241018Z 00000KT M01/M09 A3028 RMK A01 T10101089  RH  055%=      5-min Rain = 0
KMC4 241019Z 24000KT M01/M09 A3028 RMK A01 T10101089  RH  055%=      5-min Rain = 0
KMC4 241020Z 24001KT M01/M09 A3028 RMK A01 T10101090  RH  055%=      5-min Rain = 0
KMC4 241021Z 24001KT M01/M09 A3028 RMK A01 T10101091  RH  054%=      5-min Rain = 0
KMC4 241022Z 25001KT M01/M09 A3028 RMK A01 T10091092  RH  053%=      5-min Rain = 0
KMC4 241023Z 26001KT M01/M09 A3028 RMK A01 T10081090  RH  054%=      5-min Rain = 0
KMC4 241024Z 26001KT M01/M09 A3028 RMK A01 T10081092  RH  053%=      5-min Rain = 0
KMC4 241025Z 26001KT M01/M09 A3028 RMK A01 T10071092  RH  053%=      5-min Rain = 0
KMC4 241026Z 27001KT M01/M09 A3028 RMK A01 T10071092  RH  053%=      5-min Rain = 0
KMC4 241027Z 28001KT M01/M09 A3028 RMK A01 T10071092  RH  052%=      5-min Rain = 0
KMC4 241028Z 28000KT M01/M09 A3028 RMK A01 T10061093  RH  052%=      5-min Rain = 0
KMC4 241029Z 28001KT M01/M09 A3028 RMK A01 T10061092  RH  052%=      5-min Rain = 0
KMC4 241030Z 28000KT M01/M09 A3028 RMK A01 T10061091  RH  053%=      5-min Rain = 0
KMC4 241031Z 28000KT M01/M09 A3028 RMK A01 T10071091  RH  053%=      5-min Rain = 0
KMC4 241032Z 00000KT M01/M09 A3028 RMK A01 T10071090  RH  053%=      5-min Rain = 0
KMC4 241033Z 00000KT M01/M09 A3028 RMK A01 T10061090  RH  053%=      5-min Rain = 0
KMC4 241034Z 00000KT M01/M09 A3028 RMK A01 T10061090  RH  053%=      5-min Rain = 0
KMC4 241035Z 32000KT M01/M09 A3028 RMK A01 T10051088  RH  053%=      5-min Rain = 0
KMC4 241036Z 32001KT M01/M09 A3028 RMK A01 T10051089  RH  053%=      5-min Rain = 0
KMC4 241037Z 32002KT M01/M09 A3028 RMK A01 T10051090  RH  053%=      5-min Rain = 0
KMC4 241038Z 32002KT M01/M09 A3028 RMK A01 T10051090  RH  053%=      5-min Rain = 0
KMC4 241039Z 32002KT M01/M09 A3028 RMK A01 T10051090  RH  053%=      5-min Rain = 0
KMC4 241040Z 32001KT M01/M09 A3028 RMK A01 T10051089  RH  053%=      5-min Rain = 0
KMC4 241041Z 34001KT M01/M09 A3028 RMK A01 T10051089  RH  053%=      5-min Rain = 0
KMC4 241042Z 02001KT M01/M09 A3028 RMK A01 T10061088  RH  054%=      5-min Rain = 0
KMC4 241043Z 03002KT M01/M09 A3028 RMK A01 T10051086  RH  054%=      5-min Rain = 0
KMC4 241044Z 04003KT M01/M09 A3028 RMK A01 T10051086  RH  054%=      5-min Rain = 0
KMC4 241045Z 04003KT M01/M09 A3028 RMK A01 T10051087  RH  054%=      5-min Rain = 0
KMC4 241046Z 05003KT M00/M09 A3028 RMK A01 T10041086  RH  054%=      5-min Rain = 0
KMC4 241047Z 05004KT M00/M09 A3028 RMK A01 T10041086  RH  054%=      5-min Rain = 0
KMC4 241048Z 05004KT M00/M09 A3028 RMK A01 T10041086  RH  054%=      5-min Rain = 0
KMC4 241049Z 04003KT M00/M09 A3028 RMK A01 T10041085  RH  054%=      5-min Rain = 0
KMC4 241050Z 04003KT M00/M09 A3028 RMK A01 T10031085  RH  054%=      5-min Rain = 0
KMC4 241051Z 05002KT M00/M09 A3028 RMK A01 T10011085  RH  053%=      5-min Rain = 0
KMC4 241052Z 06002KT 00/09 A3028 RMK A01 T00000-87  RH  052%=      5-min Rain = 0
KMC4 241053Z 07003KT 00/M09 A3029 RMK A01 T00021089  RH  051%=      5-min Rain = 0
KMC4 241054Z 07003KT 00/M09 A3029 RMK A01 T00021089  RH  050%=      5-min Rain = 0
KMC4 241055Z 06004KT 00/M09 A3029 RMK A01 T00031088  RH  050%=      5-min Rain = 0
KMC4 241056Z 06003KT 00/M09 A3029 RMK A01 T00031090  RH  050%=      5-min Rain = 0
KMC4 241057Z 06001KT 00/M09 A3029 RMK A01 T00031089  RH  050%=      5-min Rain = 0
KMC4 241058Z 03001KT 00/M09 A3029 RMK A01 T00041090  RH  049%=      5-min Rain = 0
KMC4 241059Z 03002KT 00/M09 A3029 RMK A01 T00031091  RH  049%=      5-min Rain = 0
KMC4 241100Z 04003KT 00/M09 A3029 RMK A01 T00021092  RH  049%=      5-min Rain = 0
KMC4 241101Z 04004KT 00/M09 A3029 RMK A01 T00021092  RH  049%=      5-min Rain = 0
KMC4 241102Z 03003KT 00/M09 A3029 RMK A01 T00021091  RH  050%=      5-min Rain = 0
KMC4 241103Z 01003KT 00/M09 A3029 RMK A01 T00021092  RH  049%=      5-min Rain = 0
KMC4 241104Z 01002KT 00/M09 A3028 RMK A01 T00031093  RH  049%=      5-min Rain = 0
KMC4 241105Z 01003KT 00/M09 A3029 RMK A01 T00031093  RH  049%=      5-min Rain = 0
KMC4 241106Z 02003KT 00/M09 A3029 RMK A01 T00021093  RH  049%=      5-min Rain = 0
KMC4 241107Z 03003KT 00/M09 A3029 RMK A01 T00011093  RH  049%=      5-min Rain = 0
KMC4 241108Z 03003KT 00/M09 A3029 RMK A01 T00011093  RH  049%=      5-min Rain = 0
KMC4 241109Z 04003KT 00/09 A3029 RMK A01 T00-00-92  RH  050%=      5-min Rain = 0
KMC4 241110Z 05003KT M00/M09 A3029 RMK A01 T10011093  RH  050%=      5-min Rain = 0
KMC4 241111Z 05003KT 00/09 A3029 RMK A01 T00-00-93  RH  050%=      5-min Rain = 0
KMC4 241112Z 03003KT 00/M09 A3029 RMK A01 T00011093  RH  049%=      5-min Rain = 0
KMC4 241113Z 02003KT 00/M09 A3029 RMK A01 T00011093  RH  049%=      5-min Rain = 0
KMC4 241114Z 01003KT 00/M09 A3029 RMK A01 T00011094  RH  049%=      5-min Rain = 0
KMC4 241115Z 00003KT 00/M09 A3029 RMK A01 T00011093  RH  049%=      5-min Rain = 0
KMC4 241116Z 00003KT 00/09 A3029 RMK A01 T00-00-93  RH  050%=      5-min Rain = 0
KMC4 241117Z 01003KT M00/M09 A3029 RMK A01 T10011093  RH  050%=      5-min Rain = 0
KMC4 241118Z 02003KT M00/M09 A3029 RMK A01 T10011093  RH  050%=      5-min Rain = 0
KMC4 241119Z 02003KT 00/M09 A3029 RMK A01 T00011093  RH  049%=      5-min Rain = 0
KMC4 241120Z 02003KT 00/M09 A3029 RMK A01 T00021092  RH  049%=      5-min Rain = 0
KMC4 241121Z 02003KT 00/M09 A3029 RMK A01 T00011092  RH  049%=      5-min Rain = 0
KMC4 241122Z 02002KT 00/M09 A3029 RMK A01 T00011092  RH  050%=      5-min Rain = 0
KMC4 241123Z 01002KT 00/M09 A3029 RMK A01 T00011092  RH  050%=      5-min Rain = 0
KMC4 241124Z 01002KT 00/M09 A3029 RMK A01 T00011092  RH  050%=      5-min Rain = 0
KMC4 241125Z 01002KT 00/M09 A3029 RMK A01 T00011092  RH  050%=      5-min Rain = 0
KMC4 241126Z 00002KT 00/M09 A3029 RMK A01 T00011092  RH  050%=      5-min Rain = 0
KMC4 241127Z 00002KT 00/09 A3029 RMK A01 T00000-92  RH  050%=      5-min Rain = 0
KMC4 241128Z 00002KT 00/09 A3029 RMK A01 T00-00-93  RH  050%=      5-min Rain = 0
KMC4 241129Z 00002KT M00/M09 A3029 RMK A01 T10011094  RH  050%=      5-min Rain = 0
KMC4 241130Z 00002KT M00/M09 A3029 RMK A01 T10011094  RH  050%=      5-min Rain = 0
KMC4 241131Z 00001KT M00/M09 A3029 RMK A01 T10011094  RH  050%=      5-min Rain = 0
KMC4 241132Z 00001KT M00/M09 A3029 RMK A01 T10011094  RH  050%=      5-min Rain = 0
KMC4 241133Z 00000KT M00/M09 A303 RMK A01 T10021093  RH  050%=      5-min Rain = 0
KMC4 241134Z 00000KT M00/M09 A303 RMK A01 T10041092  RH  051%=      5-min Rain = 0
KMC4 241135Z 00000KT M01/M10 A303 RMK A01 T10091096  RH  052%=      5-min Rain = 0
KMC4 241136Z 00000KT M02/M10 A303 RMK A01 T10161099  RH  053%=      5-min Rain = 0
KMC4 241137Z 00000KT M02/M10 A303 RMK A01 T10211101  RH  054%=      5-min Rain = 0
KMC4 241138Z 00000KT M03/M10 A303 RMK A01 T10251102  RH  056%=      5-min Rain = 0
KMC4 241139Z 00000KT M03/M10 A303 RMK A01 T10291102  RH  057%=      5-min Rain = 0
KMC4 241140Z 00000KT M03/M10 A303 RMK A01 T10311101  RH  058%=      5-min Rain = 0
KMC4 241141Z 00000KT M03/M10 A303 RMK A01 T10321100  RH  059%=      5-min Rain = 0
KMC4 241142Z 00000KT M03/M10 A303 RMK A01 T10321100  RH  060%=      5-min Rain = 0
KMC4 241143Z 34000KT M03/M10 A303 RMK A01 T10321099  RH  060%=      5-min Rain = 0
KMC4 241144Z 34001KT M03/M10 A303 RMK A01 T10321099  RH  060%=      5-min Rain = 0
KMC4 241145Z 34001KT M03/M10 A303 RMK A01 T10321100  RH  060%=      5-min Rain = 0
KMC4 241146Z 35001KT M03/M10 A303 RMK A01 T10321099  RH  060%=      5-min Rain = 0
KMC4 241147Z 01001KT M03/M10 A303 RMK A01 T10311100  RH  059%=      5-min Rain = 0
KMC4 241148Z 02001KT M03/M10 A303 RMK A01 T10311100  RH  059%=      5-min Rain = 0
KMC4 241149Z 02001KT M03/M10 A303 RMK A01 T10311099  RH  059%=      5-min Rain = 0
KMC4 241150Z 02001KT M03/M10 A303 RMK A01 T10301098  RH  059%=      5-min Rain = 0
KMC4 241151Z 02001KT M03/M10 A303 RMK A01 T10301099  RH  059%=      5-min Rain = 0
KMC4 241152Z 02001KT M03/M10 A303 RMK A01 T10301098  RH  059%=      5-min Rain = 0
KMC4 241153Z 01001KT M03/M10 A303 RMK A01 T10271096  RH  059%=      5-min Rain = 0
KMC4 241154Z 01002KT M03/M10 A303 RMK A01 T10261095  RH  059%=      5-min Rain = 0
KMC4 241155Z 01002KT M03/M10 A303 RMK A01 T10251095  RH  058%=      5-min Rain = 0
KMC4 241156Z 01002KT M03/M10 A303 RMK A01 T10251096  RH  058%=      5-min Rain = 0
KMC4 241157Z 01002KT M02/M09 A303 RMK A01 T10231094  RH  059%=      5-min Rain = 0
KMC4 241158Z 01003KT M02/M09 A303 RMK A01 T10201092  RH  058%=      5-min Rain = 0
KMC4 241159Z 00003KT M02/M09 A303 RMK A01 T10181093  RH  057%=      5-min Rain = 0
KMC4 241200Z 01003KT M02/M09 A303 RMK A01 T10151094  RH  055%=      5-min Rain = 0
KMC4 241201Z 01003KT M01/M10 A303 RMK A01 T10131095  RH  054%=      5-min Rain = 0
KMC4 241202Z 01004KT M01/M10 A303 RMK A01 T10131096  RH  053%=      5-min Rain = 0
KMC4 241203Z 01003KT M01/M10 A303 RMK A01 T10121096  RH  053%=      5-min Rain = 0
KMC4 241204Z 01003KT M01/M10 A3031 RMK A01 T10111095  RH  053%=      5-min Rain = 0
KMC4 241205Z 01003KT M01/M09 A3031 RMK A01 T10111094  RH  053%=      5-min Rain = 0
KMC4 241206Z 02003KT M01/M09 A3031 RMK A01 T10101094  RH  053%=      5-min Rain = 0
KMC4 241207Z 02003KT M01/M10 A3031 RMK A01 T10101095  RH  053%=      5-min Rain = 0
KMC4 241208Z 03003KT M01/M10 A3031 RMK A01 T10101095  RH  052%=      5-min Rain = 0
KMC4 241209Z 03003KT M01/M10 A3031 RMK A01 T10101095  RH  052%=      5-min Rain = 0
KMC4 241210Z 03003KT M01/M09 A3031 RMK A01 T10091094  RH  053%=      5-min Rain = 0
KMC4 241211Z 03002KT M01/M09 A3031 RMK A01 T10091093  RH  053%=      5-min Rain = 0
KMC4 241212Z 03002KT M01/M09 A3031 RMK A01 T10091093  RH  053%=      5-min Rain = 0
KMC4 241213Z 02002KT M01/M09 A3031 RMK A01 T10091093  RH  053%=      5-min Rain = 0
KMC4 241214Z 01002KT M01/M09 A3031 RMK A01 T10101094  RH  053%=      5-min Rain = 0
KMC4 241215Z 00001KT M01/M10 A3031 RMK A01 T10101095  RH  052%=      5-min Rain = 0
KMC4 241216Z 01001KT M01/M10 A3031 RMK A01 T10101096  RH  052%=      5-min Rain = 0
KMC4 241217Z 01001KT M01/M10 A3031 RMK A01 T10101096  RH  052%=      5-min Rain = 0
KMC4 241218Z 03000KT M01/M10 A3031 RMK A01 T10101095  RH  052%=      5-min Rain = 0
KMC4 241219Z 04001KT M01/M10 A3031 RMK A01 T10111095  RH  053%=      5-min Rain = 0
KMC4 241220Z 04001KT M01/M10 A3031 RMK A01 T10111095  RH  053%=      5-min Rain = 0
KMC4 241221Z 04001KT M01/M09 A3031 RMK A01 T10111094  RH  053%=      5-min Rain = 0
KMC4 241222Z 04001KT M01/M09 A3031 RMK A01 T10131093  RH  055%=      5-min Rain = 0
KMC4 241223Z 04002KT M02/M09 A3031 RMK A01 T10171094  RH  056%=      5-min Rain = 0
KMC4 241224Z 05001KT M02/M09 A3031 RMK A01 T10191094  RH  057%=      5-min Rain = 0
KMC4 241225Z 10001KT M02/M09 A3031 RMK A01 T10211094  RH  057%=      5-min Rain = 0
KMC4 241226Z 11001KT M02/M10 A3031 RMK A01 T10231095  RH  058%=      5-min Rain = 0
KMC4 241227Z 11001KT M02/M10 A3031 RMK A01 T10241096  RH  058%=      5-min Rain = 0
KMC4 241228Z 11000KT M03/M10 A3031 RMK A01 T10251096  RH  059%=      5-min Rain = 0
KMC4 241229Z 00000KT M03/M10 A3031 RMK A01 T10261095  RH  059%=      5-min Rain = 0
KMC4 241230Z 00000KT M03/M10 A3031 RMK A01 T10271096  RH  059%=      5-min Rain = 0
KMC4 241231Z 07001KT M03/M10 A3031 RMK A01 T10271095  RH  059%=      5-min Rain = 0
KMC4 241232Z 07001KT M03/M10 A3031 RMK A01 T10271095  RH  059%=      5-min Rain = 0
KMC4 241233Z 06001KT M03/M10 A3031 RMK A01 T10271095  RH  060%=      5-min Rain = 0
KMC4 241234Z 07001KT M03/M09 A3031 RMK A01 T10261094  RH  060%=      5-min Rain = 0
KMC4 241235Z 07001KT M03/M09 A3031 RMK A01 T10261094  RH  060%=      5-min Rain = 0
KMC4 241236Z 07000KT M03/M09 A3031 RMK A01 T10251093  RH  060%=      5-min Rain = 0
KMC4 241237Z 00000KT M03/M09 A3031 RMK A01 T10251093  RH  059%=      5-min Rain = 0
KMC4 241238Z 08000KT M03/M09 A3031 RMK A01 T10251094  RH  059%=      5-min Rain = 0
KMC4 241239Z 08000KT M03/M09 A3031 RMK A01 T10251094  RH  059%=      5-min Rain = 0
KMC4 241240Z 00000KT M03/M09 A3031 RMK A01 T10251094  RH  059%=      5-min Rain = 0
KMC4 241241Z 00000KT M03/M09 A3031 RMK A01 T10251094  RH  059%=      5-min Rain = 0
KMC4 241242Z 00000KT M03/M09 A3031 RMK A01 T10251094  RH  059%=      5-min Rain = 0
KMC4 241243Z 08000KT M03/M09 A3031 RMK A01 T10251094  RH  059%=      5-min Rain = 0
KMC4 241244Z 08000KT M03/M09 A3031 RMK A01 T10251094  RH  059%=      5-min Rain = 0
KMC4 241245Z 08001KT M03/M09 A3031 RMK A01 T10251094  RH  059%=      5-min Rain = 0
KMC4 241246Z 08002KT M03/M09 A3031 RMK A01 T10251094  RH  059%=      5-min Rain = 0
KMC4 241247Z 08001KT M03/M09 A3031 RMK A01 T10251093  RH  059%=      5-min Rain = 0
KMC4 241248Z 06001KT M03/M09 A3031 RMK A01 T10251093  RH  059%=      5-min Rain = 0
KMC4 241249Z 05001KT M03/M09 A3031 RMK A01 T10251093  RH  059%=      5-min Rain = 0
KMC4 241250Z 05001KT M02/M09 A3031 RMK A01 T10241093  RH  059%=      5-min Rain = 0
KMC4 241251Z 05002KT M02/M09 A3031 RMK A01 T10241093  RH  059%=      5-min Rain = 0
KMC4 241252Z 05002KT M02/M09 A3031 RMK A01 T10241093  RH  059%=      5-min Rain = 0
KMC4 241253Z 05002KT M02/M09 A3031 RMK A01 T10231092  RH  059%=      5-min Rain = 0
KMC4 241254Z 05002KT M02/M09 A3031 RMK A01 T10221091  RH  059%=      5-min Rain = 0
KMC4 241255Z 06003KT M02/M09 A3031 RMK A01 T10211091  RH  058%=      5-min Rain = 0
KMC4 241256Z 07003KT M02/M09 A3031 RMK A01 T10191092  RH  058%=      5-min Rain = 0
KMC4 241257Z 07003KT M02/M09 A3031 RMK A01 T10181092  RH  057%=      5-min Rain = 0
KMC4 241258Z 08003KT M02/M09 A3031 RMK A01 T10171091  RH  057%=      5-min Rain = 0
KMC4 241259Z 08004KT M02/M09 A3031 RMK A01 T10161090  RH  057%=      5-min Rain = 0
KMC4 241300Z 08004KT M02/M09 A3031 RMK A01 T10151089  RH  057%=      5-min Rain = 0
KMC4 241301Z 07003KT M02/M09 A3031 RMK A01 T10151089  RH  057%=      5-min Rain = 0
KMC4 241302Z 06003KT M01/M09 A3031 RMK A01 T10141090  RH  056%=      5-min Rain = 0
KMC4 241303Z 06003KT M01/M09 A3031 RMK A01 T10141091  RH  055%=      5-min Rain = 0
KMC4 241304Z 06004KT M01/M09 A3031 RMK A01 T10121092  RH  055%=      5-min Rain = 0
KMC4 241305Z 07003KT M01/M09 A3031 RMK A01 T10121092  RH  054%=      5-min Rain = 0
KMC4 241306Z 07003KT M01/M09 A3031 RMK A01 T10111092  RH  054%=      5-min Rain = 0
KMC4 241307Z 07004KT M01/M09 A3031 RMK A01 T10091092  RH  053%=      5-min Rain = 0
KMC4 241308Z 07004KT M01/M09 A3031 RMK A01 T10071092  RH  052%=      5-min Rain = 0
KMC4 241309Z 07005KT M00/M09 A3031 RMK A01 T10031093  RH  051%=      5-min Rain = 0
KMC4 241310Z 07004KT 00/09 A3031 RMK A01 T00000-93  RH  049%=      5-min Rain = 0
KMC4 241311Z 06004KT 00/M09 A3031 RMK A01 T00021094  RH  048%=      5-min Rain = 0
KMC4 241312Z 06004KT 00/M10 A3031 RMK A01 T00031095  RH  048%=      5-min Rain = 0
KMC4 241313Z 07005KT 01/M10 A3031 RMK A01 T00051095  RH  047%=      5-min Rain = 0
KMC4 241314Z 06004KT 01/M10 A3031 RMK A01 T00061096  RH  047%=      5-min Rain = 0
KMC4 241315Z 06005KT 01/M10 A3031 RMK A01 T00061096  RH  046%=      5-min Rain = 0
KMC4 241316Z 06005KT 01/M10 A3031 RMK A01 T00071096  RH  046%=      5-min Rain = 0
KMC4 241317Z 07005KT 01/M10 A3031 RMK A01 T00071096  RH  046%=      5-min Rain = 0
KMC4 241318Z 07004KT 01/M10 A3031 RMK A01 T00081096  RH  046%=      5-min Rain = 0
KMC4 241319Z 07005KT 01/M10 A3031 RMK A01 T00071096  RH  046%=      5-min Rain = 0
KMC4 241320Z 07004KT 01/M10 A3031 RMK A01 T00071096  RH  046%=      5-min Rain = 0
KMC4 241321Z 07004KT 01/M10 A3032 RMK A01 T00061096  RH  047%=      5-min Rain = 0
KMC4 241322Z 07004KT 01/M10 A3032 RMK A01 T00051095  RH  047%=      5-min Rain = 0
KMC4 241323Z 07004KT 01/M10 A3032 RMK A01 T00061095  RH  047%=      5-min Rain = 0
KMC4 241324Z 07004KT 01/M10 A3032 RMK A01 T00061096  RH  047%=      5-min Rain = 0
KMC4 241325Z 07004KT 01/M10 A3032 RMK A01 T00061096  RH  046%=      5-min Rain = 0
KMC4 241326Z 07005KT 01/M10 A3032 RMK A01 T00061096  RH  046%=      5-min Rain = 0
KMC4 241327Z 07005KT 01/M10 A3032 RMK A01 T00061096  RH  046%=      5-min Rain = 0
KMC4 241328Z 07005KT 01/M10 A3032 RMK A01 T00061096  RH  046%=      5-min Rain = 0
KMC4 241329Z 07005KT 01/M10 A3032 RMK A01 T00071096  RH  046%=      5-min Rain = 0
KMC4 241330Z 07005KT 01/M10 A3032 RMK A01 T00071096  RH  046%=      5-min Rain = 0
KMC4 241331Z 07006KT 01/M10 A3032 RMK A01 T00071096  RH  046%=      5-min Rain = 0
KMC4 241332Z 07006KT 01/M10 A3032 RMK A01 T00081096  RH  046%=      5-min Rain = 0
KMC4 241333Z 06007KT 01/M10 A3032 RMK A01 T00091096  RH  045%=      5-min Rain = 0
KMC4 241334Z 07007KT 01/M10 A3032 RMK A01 T00101095  RH  045%=      5-min Rain = 0
KMC4 241335Z 07008KT 01/M10 A3032 RMK A01 T00101095  RH  045%=      5-min Rain = 0
KMC4 241336Z 07008KT 01/M10 A3032 RMK A01 T00111095  RH  045%=      5-min Rain = 0
KMC4 241337Z 06008KT 01/M10 A3032 RMK A01 T00121095  RH  045%=      5-min Rain = 0
KMC4 241338Z 06008KT 01/M10 A3032 RMK A01 T00121095  RH  045%=      5-min Rain = 0
KMC4 241339Z 06009KT 01/M10 A3032 RMK A01 T00131095  RH  044%=      5-min Rain = 0
KMC4 241340Z 06008KT 01/M09 A3032 RMK A01 T00141094  RH  044%=      5-min Rain = 0
KMC4 241341Z 06007KT 02/M09 A3033 RMK A01 T00151094  RH  044%=      5-min Rain = 0
KMC4 241342Z 07007KT 02/M09 A3033 RMK A01 T00151094  RH  044%=      5-min Rain = 0
KMC4 241343Z 07006KT 02/M09 A3033 RMK A01 T00161094  RH  044%=      5-min Rain = 0
KMC4 241344Z 07007KT 02/M09 A3033 RMK A01 T00161094  RH  044%=      5-min Rain = 0
KMC4 241345Z 06007KT 02/M09 A3032 RMK A01 T00171094  RH  044%=      5-min Rain = 0
KMC4 241346Z 06007KT 02/M09 A3032 RMK A01 T00171094  RH  044%=      5-min Rain = 0
KMC4 241347Z 06008KT 02/M09 A3032 RMK A01 T00181094  RH  043%=      5-min Rain = 0
KMC4 241348Z 07008KT 02/M09 A3032 RMK A01 T00191094  RH  043%=      5-min Rain = 0
KMC4 241349Z 07008KT 02/M09 A3033 RMK A01 T00201094  RH  043%=      5-min Rain = 0
KMC4 241350Z 07008KT 02/M09 A3033 RMK A01 T00211094  RH  043%=      5-min Rain = 0
KMC4 241351Z 07008KT 02/M09 A3033 RMK A01 T00211094  RH  042%=      5-min Rain = 0
KMC4 241352Z 07008KT 02/M09 A3033 RMK A01 T00221094  RH  042%=      5-min Rain = 0
KMC4 241353Z 07008KT 02/M09 A3033 RMK A01 T00231094  RH  042%=      5-min Rain = 0
KMC4 241354Z 06007KT 02/M09 A3033 RMK A01 T00231094  RH  042%=      5-min Rain = 0
KMC4 241355Z 06007KT 02/M09 A3033 RMK A01 T00231094  RH  041%=      5-min Rain = 0
KMC4 241356Z 06006KT 02/M09 A3033 RMK A01 T00241094  RH  041%=      5-min Rain = 0
KMC4 241357Z 06006KT 02/M09 A3033 RMK A01 T00241094  RH  041%=      5-min Rain = 0
KMC4 241358Z 06006KT 03/M10 A3033 RMK A01 T00251095  RH  041%=      5-min Rain = 0
KMC4 241359Z 07006KT 03/M09 A3033 RMK A01 T00251094  RH  041%=      5-min Rain = 0
KMC4 241400Z 07006KT 03/M10 A3033 RMK A01 T00251095  RH  041%=      5-min Rain = 0
KMC4 241401Z 07006KT 03/M10 A3033 RMK A01 T00251095  RH  041%=      5-min Rain = 0
KMC4 241402Z 07006KT 03/M10 A3033 RMK A01 T00261095  RH  041%=      5-min Rain = 0
KMC4 241403Z 07006KT 03/M09 A3033 RMK A01 T00261094  RH  041%=      5-min Rain = 0
KMC4 241404Z 07005KT 03/M10 A3033 RMK A01 T00271095  RH  040%=      5-min Rain = 0
KMC4 241405Z 07005KT 03/M09 A3033 RMK A01 T00271094  RH  040%=      5-min Rain = 0
KMC4 241406Z 07004KT 03/M09 A3033 RMK A01 T00281094  RH  040%=      5-min Rain = 0
KMC4 241407Z 08004KT 03/M09 A3033 RMK A01 T00281094  RH  040%=      5-min Rain = 0
KMC4 241408Z 07005KT 03/M09 A3033 RMK A01 T00291093  RH  040%=      5-min Rain = 0
KMC4 241409Z 07005KT 03/M09 A3033 RMK A01 T00291094  RH  040%=      5-min Rain = 0
KMC4 241410Z 07005KT 03/M09 A3033 RMK A01 T00301093  RH  040%=      5-min Rain = 0
KMC4 241411Z 07006KT 03/M09 A3034 RMK A01 T00301093  RH  040%=      5-min Rain = 0
KMC4 241412Z 07005KT 03/M09 A3034 RMK A01 T00301093  RH  040%=      5-min Rain = 0
KMC4 241413Z 08005KT 03/M09 A3034 RMK A01 T00311093  RH  040%=      5-min Rain = 0
KMC4 241414Z 08005KT 03/M09 A3034 RMK A01 T00311093  RH  040%=      5-min Rain = 0
KMC4 241415Z 11003KT 03/M09 A3034 RMK A01 T00321092  RH  040%=      5-min Rain = 0
KMC4 241416Z 11005KT 03/M09 A3034 RMK A01 T00331090  RH  040%=      5-min Rain = 0
KMC4 241417Z 11005KT 03/M09 A3034 RMK A01 T00341090  RH  040%=      5-min Rain = 0
KMC4 241418Z 10005KT 03/M09 A3034 RMK A01 T00341091  RH  039%=      5-min Rain = 0
KMC4 241419Z 10005KT 03/M09 A3034 RMK A01 T00341091  RH  040%=      5-min Rain = 0
KMC4 241420Z 09006KT 03/M09 A3034 RMK A01 T00341091  RH  040%=      5-min Rain = 0
KMC4 241421Z 09005KT 03/M09 A3034 RMK A01 T00341091  RH  039%=      5-min Rain = 0
KMC4 241422Z 09005KT 03/M09 A3034 RMK A01 T00341091  RH  039%=      5-min Rain = 0
KMC4 241423Z 10004KT 04/M09 A3034 RMK A01 T00351091  RH  039%=      5-min Rain = 0
KMC4 241424Z 11004KT 04/M09 A3034 RMK A01 T00351090  RH  039%=      5-min Rain = 0
KMC4 241425Z 13003KT 04/M09 A3035 RMK A01 T00361089  RH  040%=      5-min Rain = 0
KMC4 241426Z 13004KT 04/M09 A3035 RMK A01 T00361088  RH  040%=      5-min Rain = 0
KMC4 241427Z 13004KT 04/M09 A3035 RMK A01 T00371088  RH  039%=      5-min Rain = 0
KMC4 241428Z 13003KT 04/M09 A3035 RMK A01 T00371090  RH  039%=      5-min Rain = 0
KMC4 241429Z 12003KT 04/M09 A3035 RMK A01 T00381089  RH  039%=      5-min Rain = 0
KMC4 241430Z 11003KT 04/M09 A3035 RMK A01 T00381089  RH  039%=      5-min Rain = 0
KMC4 241431Z 11004KT 04/M09 A3035 RMK A01 T00391089  RH  039%=      5-min Rain = 0
KMC4 241432Z 14005KT 04/M09 A3035 RMK A01 T00391091  RH  038%=      5-min Rain = 0
KMC4 241433Z 15005KT 04/M09 A3035 RMK A01 T00391089  RH  039%=      5-min Rain = 0
KMC4 241434Z 14006KT 04/M09 A3035 RMK A01 T00371089  RH  039%=      5-min Rain = 0
KMC4 241435Z 13006KT 04/M09 A3035 RMK A01 T00361090  RH  039%=      5-min Rain = 0
KMC4 241436Z 14005KT 04/M09 A3035 RMK A01 T00361089  RH  040%=      5-min Rain = 0
KMC4 241437Z 14005KT 04/M09 A3035 RMK A01 T00371089  RH  039%=      5-min Rain = 0
KMC4 241438Z 13005KT 04/M09 A3035 RMK A01 T00381089  RH  039%=      5-min Rain = 0
KMC4 241439Z 13005KT 04/M09 A3036 RMK A01 T00391091  RH  038%=      5-min Rain = 0
KMC4 241440Z 12004KT 04/M09 A3036 RMK A01 T00391092  RH  038%=      5-min Rain = 0
KMC4 241441Z 12003KT 04/M09 A3036 RMK A01 T00391092  RH  038%=      5-min Rain = 0
KMC4 241442Z 10003KT 04/M09 A3036 RMK A01 T00391092  RH  038%=      5-min Rain = 0
KMC4 241443Z 11003KT 04/M09 A3036 RMK A01 T00391091  RH  038%=      5-min Rain = 0
KMC4 241444Z 10004KT 04/M09 A3036 RMK A01 T00411090  RH  038%=      5-min Rain = 0
KMC4 241445Z 10003KT 04/M09 A3036 RMK A01 T00411091  RH  037%=      5-min Rain = 0
KMC4 241446Z 11003KT 04/M09 A3036 RMK A01 T00411090  RH  038%=      5-min Rain = 0
KMC4 241447Z 11003KT 04/M09 A3036 RMK A01 T00421090  RH  038%=      5-min Rain = 0
KMC4 241448Z 09003KT 04/M09 A3036 RMK A01 T00441089  RH  038%=      5-min Rain = 0
KMC4 241449Z 10003KT 05/M09 A3036 RMK A01 T00451087  RH  038%=      5-min Rain = 0
KMC4 241450Z 11003KT 05/M09 A3036 RMK A01 T00461088  RH  037%=      5-min Rain = 0
KMC4 241451Z 12004KT 05/M09 A3036 RMK A01 T00471088  RH  037%=      5-min Rain = 0
KMC4 241452Z 11004KT 05/M09 A3036 RMK A01 T00491089  RH  036%=      5-min Rain = 0
KMC4 241453Z 10004KT 05/M09 A3036 RMK A01 T00491089  RH  036%=      5-min Rain = 0
KMC4 241454Z 09004KT 05/M09 A3036 RMK A01 T00491089  RH  036%=      5-min Rain = 0
KMC4 241455Z 10003KT 05/M09 A3036 RMK A01 T00491089  RH  036%=      5-min Rain = 0
KMC4 241456Z 09003KT 05/M09 A3036 RMK A01 T00491089  RH  036%=      5-min Rain = 0
KMC4 241457Z 07003KT 05/M09 A3036 RMK A01 T00501088  RH  036%=      5-min Rain = 0
KMC4 241458Z 09004KT 05/M09 A3036 RMK A01 T00501088  RH  036%=      5-min Rain = 0
KMC4 241459Z 09002KT 05/M09 A3037 RMK A01 T00511088  RH  036%=      5-min Rain = 0
KMC4 241500Z 08002KT 05/M09 A3037 RMK A01 T00521086  RH  036%=      5-min Rain = 0
KMC4 241501Z 08003KT 05/M09 A3036 RMK A01 T00531086  RH  036%=      5-min Rain = 0
KMC4 241502Z 07003KT 05/M09 A3036 RMK A01 T00541086  RH  036%=      5-min Rain = 0
KMC4 241503Z 08003KT 05/M09 A3036 RMK A01 T00541087  RH  035%=      5-min Rain = 0
KMC4 241504Z 07003KT 06/M09 A3036 RMK A01 T00551086  RH  035%=      5-min Rain = 0
KMC4 241505Z 08003KT 06/M09 A3037 RMK A01 T00561085  RH  035%=      5-min Rain = 0
KMC4 241506Z 07003KT 06/M09 A3037 RMK A01 T00561086  RH  035%=      5-min Rain = 0
KMC4 241507Z 07003KT 06/M09 A3037 RMK A01 T00571086  RH  035%=      5-min Rain = 0
KMC4 241508Z 06002KT 06/M09 A3037 RMK A01 T00571087  RH  035%=      5-min Rain = 0
KMC4 241509Z 10003KT 06/M09 A3037 RMK A01 T00571086  RH  035%=      5-min Rain = 0
KMC4 241510Z 12002KT 06/M09 A3037 RMK A01 T00591085  RH  035%=      5-min Rain = 0
KMC4 241511Z 12002KT 06/M09 A3037 RMK A01 T00621086  RH  034%=      5-min Rain = 0
KMC4 241512Z 13003KT 06/M09 A3037 RMK A01 T00621086  RH  034%=      5-min Rain = 0
KMC4 241513Z 12003KT 06/M09 A3037 RMK A01 T00641085  RH  034%=      5-min Rain = 0
KMC4 241514Z 11003KT 07/M09 A3037 RMK A01 T00661085  RH  033%=      5-min Rain = 0
KMC4 241515Z 12002KT 07/M09 A3037 RMK A01 T00651086  RH  033%=      5-min Rain = 0
KMC4 241516Z 10001KT 07/M09 A3037 RMK A01 T00651085  RH  033%=      5-min Rain = 0
KMC4 241517Z 10002KT 07/M08 A3037 RMK A01 T00671083  RH  033%=      5-min Rain = 0
KMC4 241518Z 13003KT 07/M08 A3037 RMK A01 T00691082  RH  033%=      5-min Rain = 0
KMC4 241519Z 13003KT 07/M08 A3037 RMK A01 T00701083  RH  033%=      5-min Rain = 0
KMC4 241520Z 12003KT 07/M08 A3037 RMK A01 T00721083  RH  032%=      5-min Rain = 0
KMC4 241521Z 12002KT 07/M08 A3038 RMK A01 T00721082  RH  032%=      5-min Rain = 0
KMC4 241522Z 15003KT 07/M08 A3038 RMK A01 T00721081  RH  033%=      5-min Rain = 0
KMC4 241523Z 14003KT 07/M08 A3038 RMK A01 T00721081  RH  033%=      5-min Rain = 0
KMC4 241524Z 12004KT 07/M08 A3038 RMK A01 T00731079  RH  033%=      5-min Rain = 0
KMC4 241525Z 11004KT 07/M08 A3038 RMK A01 T00741076  RH  034%=      5-min Rain = 0
KMC4 241526Z 11003KT 07/M08 A3038 RMK A01 T00731078  RH  033%=      5-min Rain = 0
KMC4 241527Z 12004KT 07/M08 A3038 RMK A01 T00721080  RH  033%=      5-min Rain = 0
KMC4 241528Z 13004KT 07/M08 A3038 RMK A01 T00721080  RH  033%=      5-min Rain = 0
KMC4 241529Z 13005KT 07/M07 A3038 RMK A01 T00721074  RH  035%=      5-min Rain = 0
KMC4 241530Z 13004KT 07/M07 A3038 RMK A01 T00741071  RH  035%=      5-min Rain = 0
KMC4 241531Z 12005KT 08/M07 A3038 RMK A01 T00751071  RH  035%=      5-min Rain = 0
KMC4 241532Z 13005KT 08/M07 A3038 RMK A01 T00751070  RH  035%=      5-min Rain = 0
KMC4 241533Z 13005KT 08/M07 A3038 RMK A01 T00751070  RH  035%=      5-min Rain = 0
KMC4 241534Z 15004KT 08/M07 A3038 RMK A01 T00761069  RH  035%=      5-min Rain = 0
KMC4 241535Z 16004KT 08/M07 A3038 RMK A01 T00761067  RH  035%=      5-min Rain = 0
KMC4 241536Z 14003KT 08/M07 A3038 RMK A01 T00761068  RH  035%=      5-min Rain = 0
KMC4 241537Z 13004KT 08/M07 A3038 RMK A01 T00781065  RH  036%=      5-min Rain = 0
KMC4 241538Z 11003KT 08/M07 A3038 RMK A01 T00791066  RH  035%=      5-min Rain = 0
KMC4 241539Z 12005KT 08/M07 A3038 RMK A01 T00791067  RH  035%=      5-min Rain = 0
KMC4 241540Z 13004KT 08/M07 A3038 RMK A01 T00791066  RH  035%=      5-min Rain = 0
KMC4 241541Z 15004KT 08/M06 A3038 RMK A01 T00811063  RH  035%=      5-min Rain = 0
KMC4 241542Z 14005KT 08/M06 A3038 RMK A01 T00831058  RH  036%=      5-min Rain = 0
KMC4 241543Z 14007KT 08/M06 A3038 RMK A01 T00831057  RH  037%=      5-min Rain = 0
KMC4 241544Z 14006KT 08/M06 A3038 RMK A01 T00831057  RH  037%=      5-min Rain = 0
KMC4 241545Z 16007KT 08/M05 A3038 RMK A01 T00841053  RH  038%=      5-min Rain = 0
KMC4 241546Z 16011KT 08/M05 A3038 RMK A01 T00841048  RH  039%=      5-min Rain = 0
KMC4 241547Z 13009KT 08/M05 A3038 RMK A01 T00841048  RH  039%=      5-min Rain = 0
KMC4 241548Z 13012KT 08/M05 A3038 RMK A01 T00841046  RH  040%=      5-min Rain = 0
KMC4 241549Z 14011KT 09/M04 A3038 RMK A01 T00851044  RH  040%=      5-min Rain = 0
KMC4 241550Z 15009KT 09/M05 A3038 RMK A01 T00851045  RH  040%=      5-min Rain = 0
KMC4 241551Z 14010KT 09/M04 A3038 RMK A01 T00861043  RH  040%=      5-min Rain = 0
KMC4 241552Z 13010KT 09/M04 A3038 RMK A01 T00871042  RH  040%=      5-min Rain = 0
KMC4 241553Z 13010KT 09/M04 A3038 RMK A01 T00881043  RH  039%=      5-min Rain = 0
KMC4 241554Z 12010KT 09/M04 A3038 RMK A01 T00881044  RH  039%=      5-min Rain = 0
KMC4 241555Z 12009KT 09/M05 A3038 RMK A01 T00871045  RH  039%=      5-min Rain = 0
KMC4 241556Z 15010KT 09/M04 A3038 RMK A01 T00861043  RH  040%=      5-min Rain = 0
KMC4 241557Z 14010KT 09/M04 A3038 RMK A01 T00861044  RH  040%=      5-min Rain = 0
KMC4 241558Z 13010KT 09/M04 A3038 RMK A01 T00861044  RH  040%=      5-min Rain = 0
KMC4 241559Z 13009KT 09/M05 A3038 RMK A01 T00861045  RH  039%=      5-min Rain = 0
KMC4 241600Z 14008KT 09/M04 A3038 RMK A01 T00871044  RH  039%=      5-min Rain = 0
KMC4 241601Z 12009KT 09/M04 A3038 RMK A01 T00881042  RH  040%=      5-min Rain = 0
KMC4 241602Z 12009KT 09/M04 A3038 RMK A01 T00901041  RH  039%=      5-min Rain = 0
KMC4 241603Z 13008KT 09/M04 A3038 RMK A01 T00891043  RH  039%=      5-min Rain = 0
KMC4 241604Z 13007KT 09/M04 A3038 RMK A01 T00881044  RH  039%=      5-min Rain = 0
KMC4 241605Z 13006KT 09/M05 A3038 RMK A01 T00881045  RH  039%=      5-min Rain = 0
KMC4 241606Z 13008KT 09/M05 A3038 RMK A01 T00881045  RH  039%=      5-min Rain = 0
KMC4 241607Z 14009KT 09/M04 A3038 RMK A01 T00891044  RH  039%=      5-min Rain = 0
KMC4 241608Z 12008KT 09/M05 A3038 RMK A01 T00891045  RH  039%=      5-min Rain = 0
KMC4 241609Z 12007KT 09/M05 A3038 RMK A01 T00891045  RH  038%=      5-min Rain = 0
KMC4 241610Z 14007KT 09/M05 A3038 RMK A01 T00891045  RH  039%=      5-min Rain = 0
KMC4 241611Z 14006KT 09/M05 A3038 RMK A01 T00891046  RH  038%=      5-min Rain = 0
KMC4 241612Z 14007KT 09/M05 A3038 RMK A01 T00891045  RH  038%=      5-min Rain = 0
KMC4 241613Z 15006KT 09/M05 A3038 RMK A01 T00901046  RH  038%=      5-min Rain = 0
KMC4 241614Z 14007KT 09/M05 A3038 RMK A01 T00891046  RH  038%=      5-min Rain = 0
KMC4 241615Z 15007KT 09/M05 A3038 RMK A01 T00901045  RH  038%=      5-min Rain = 0
KMC4 241616Z 13007KT 09/M05 A3038 RMK A01 T00901046  RH  038%=      5-min Rain = 0
KMC4 241617Z 10006KT 09/M05 A3038 RMK A01 T00901045  RH  038%=      5-min Rain = 0
KMC4 241618Z 13006KT 09/M05 A3038 RMK A01 T00901047  RH  038%=      5-min Rain = 0
KMC4 241619Z 14008KT 09/M05 A3038 RMK A01 T00901046  RH  038%=      5-min Rain = 0
KMC4 241620Z 13009KT 09/M05 A3038 RMK A01 T00921045  RH  038%=      5-min Rain = 0
KMC4 241621Z 12009KT 09/M05 A3038 RMK A01 T00941046  RH  037%=      5-min Rain = 0
KMC4 241622Z 13007KT 09/M05 A3038 RMK A01 T00931047  RH  037%=      5-min Rain = 0
KMC4 241623Z 10009KT 09/M05 A3038 RMK A01 T00931047  RH  037%=      5-min Rain = 0
KMC4 241624Z 09006KT 09/M05 A3038 RMK A01 T00921047  RH  037%=      5-min Rain = 0
KMC4 241625Z 12008KT 09/M05 A3038 RMK A01 T00921047  RH  037%=      5-min Rain = 0
KMC4 241626Z 13009KT 09/M05 A3038 RMK A01 T00931045  RH  037%=      5-min Rain = 0
KMC4 241627Z 11006KT 10/M04 A3038 RMK A01 T00961044  RH  037%=      5-min Rain = 0
KMC4 241628Z 12005KT 10/M05 A3037 RMK A01 T00971045  RH  036%=      5-min Rain = 0
KMC4 241629Z 13004KT 10/M04 A3037 RMK A01 T00971044  RH  037%=      5-min Rain = 0
KMC4 241630Z 11008KT 10/M04 A3037 RMK A01 T00981044  RH  036%=      5-min Rain = 0
KMC4 241631Z 12008KT 10/M04 A3037 RMK A01 T00991043  RH  036%=      5-min Rain = 0
KMC4 241632Z 13010KT 10/M05 A3037 RMK A01 T00991045  RH  036%=      5-min Rain = 0
KMC4 241633Z 13009KT 10/M04 A3037 RMK A01 T01001042  RH  036%=      5-min Rain = 0
KMC4 241634Z 11008KT 10/M04 A3037 RMK A01 T01011044  RH  036%=      5-min Rain = 0
KMC4 241635Z 12007KT 10/M05 A3037 RMK A01 T00981047  RH  036%=      5-min Rain = 0
KMC4 241636Z 11007KT 10/M05 A3037 RMK A01 T00971046  RH  036%=      5-min Rain = 0
KMC4 241637Z 11007KT 10/M05 A3037 RMK A01 T00971046  RH  036%=      5-min Rain = 0
KMC4 241638Z 11008KT 10/M04 A3037 RMK A01 T00991043  RH  037%=      5-min Rain = 0
KMC4 241639Z 11007KT 10/M04 A3037 RMK A01 T01011043  RH  036%=      5-min Rain = 0
KMC4 241640Z 13006KT 10/M05 A3037 RMK A01 T01001047  RH  035%=      5-min Rain = 0
KMC4 241641Z 14008KT 10/M04 A3037 RMK A01 T01021043  RH  036%=      5-min Rain = 0
KMC4 241642Z 12008KT 10/M04 A3037 RMK A01 T01031043  RH  036%=      5-min Rain = 0
KMC4 241643Z 12009KT 10/M05 A3037 RMK A01 T01041046  RH  035%=      5-min Rain = 0
KMC4 241644Z 11009KT 11/M05 A3037 RMK A01 T01051048  RH  034%=      5-min Rain = 0
KMC4 241645Z 13009KT 11/M05 A3037 RMK A01 T01051048  RH  034%=      5-min Rain = 0
KMC4 241646Z 13009KT 11/M05 A3037 RMK A01 T01051046  RH  034%=      5-min Rain = 0
KMC4 241647Z 12007KT 11/M05 A3037 RMK A01 T01061048  RH  034%=      5-min Rain = 0
KMC4 241648Z 12008KT 11/M05 A3037 RMK A01 T01061047  RH  034%=      5-min Rain = 0
KMC4 241649Z 13010KT 11/M05 A3037 RMK A01 T01071045  RH  034%=      5-min Rain = 0
KMC4 241650Z 11008KT 11/M05 A3037 RMK A01 T01081048  RH  033%=      5-min Rain = 0
KMC4 241651Z 12008KT 11/M05 A3037 RMK A01 T01071048  RH  033%=      5-min Rain = 0
KMC4 241652Z 13009KT 11/M05 A3037 RMK A01 T01071047  RH  033%=      5-min Rain = 0
KMC4 241653Z 12009KT 11/M05 A3037 RMK A01 T01071049  RH  033%=      5-min Rain = 0
KMC4 241654Z 13010KT 11/M05 A3037 RMK A01 T01091047  RH  033%=      5-min Rain = 0
KMC4 241655Z 14009KT 11/M05 A3037 RMK A01 T01091047  RH  033%=      5-min Rain = 0
KMC4 241656Z 14008KT 11/M05 A3036 RMK A01 T01101046  RH  033%=      5-min Rain = 0
KMC4 241657Z 15011KT 11/M05 A3036 RMK A01 T01101046  RH  033%=      5-min Rain = 0
KMC4 241658Z 15011KT 11/M05 A3036 RMK A01 T01101047  RH  033%=      5-min Rain = 0
KMC4 241659Z 14009KT 11/M05 A3036 RMK A01 T01091048  RH  033%=      5-min Rain = 0
KMC4 241700Z 12009KT 11/M05 A3036 RMK A01 T01081048  RH  033%=      5-min Rain = 0
KMC4 241701Z 11009KT 11/M05 A3036 RMK A01 T01101045  RH  033%=      5-min Rain = 0
KMC4 241702Z 11008KT 11/M05 A3036 RMK A01 T01111047  RH  033%=      5-min Rain = 0
KMC4 241703Z 10010KT 11/M05 A3036 RMK A01 T01111047  RH  033%=      5-min Rain = 0
KMC4 241704Z 12010KT 11/M05 A3036 RMK A01 T01101047  RH  033%=      5-min Rain = 0
KMC4 241705Z 12009KT 11/M05 A3036 RMK A01 T01101047  RH  033%=      5-min Rain = 0
KMC4 241706Z 12008KT 11/M05 A3036 RMK A01 T01091048  RH  033%=      5-min Rain = 0
KMC4 241707Z 11008KT 11/M05 A3036 RMK A01 T01091047  RH  033%=      5-min Rain = 0
KMC4 241708Z 11010KT 11/M05 A3036 RMK A01 T01101046  RH  033%=      5-min Rain = 0
KMC4 241709Z 10007KT 11/M05 A3036 RMK A01 T01111045  RH  033%=      5-min Rain = 0
KMC4 241710Z 11006KT 11/M05 A3036 RMK A01 T01101046  RH  033%=      5-min Rain = 0
KMC4 241711Z 12010KT 11/M04 A3036 RMK A01 T01111044  RH  033%=      5-min Rain = 0
KMC4 241712Z 13007KT 11/M05 A3036 RMK A01 T01131045  RH  033%=      5-min Rain = 0
KMC4 241713Z 14008KT 11/M05 A3036 RMK A01 T01141045  RH  032%=      5-min Rain = 0
KMC4 241714Z 13009KT 12/M04 A3036 RMK A01 T01171044  RH  032%=      5-min Rain = 0
KMC4 241715Z 14010KT 12/M04 A3036 RMK A01 T01191044  RH  032%=      5-min Rain = 0
KMC4 241716Z 12009KT 12/M05 A3036 RMK A01 T01181046  RH  031%=      5-min Rain = 0
KMC4 241717Z 11007KT 12/M05 A3036 RMK A01 T01151047  RH  032%=      5-min Rain = 0
KMC4 241718Z 13008KT 12/M05 A3036 RMK A01 T01151045  RH  033%=      5-min Rain = 0
KMC4 241719Z 13009KT 12/M05 A3036 RMK A01 T01151045  RH  032%=      5-min Rain = 0
KMC4 241720Z 13008KT 12/M04 A3036 RMK A01 T01161044  RH  032%=      5-min Rain = 0
KMC4 241721Z 15009KT 12/M04 A3035 RMK A01 T01171044  RH  032%=      5-min Rain = 0
KMC4 241722Z 14010KT 12/M04 A3035 RMK A01 T01181043  RH  032%=      5-min Rain = 0
KMC4 241723Z 15010KT 12/M04 A3035 RMK A01 T01201042  RH  032%=      5-min Rain = 0
KMC4 241724Z 15010KT 12/M05 A3035 RMK A01 T01201045  RH  031%=      5-min Rain = 0
KMC4 241725Z 14010KT 12/M04 A3035 RMK A01 T01191043  RH  032%=      5-min Rain = 0
KMC4 241726Z 15010KT 12/M04 A3035 RMK A01 T01211044  RH  031%=      5-min Rain = 0
KMC4 241727Z 14010KT 12/M05 A3035 RMK A01 T01201046  RH  031%=      5-min Rain = 0
KMC4 241728Z 14009KT 12/M04 A3035 RMK A01 T01201043  RH  032%=      5-min Rain = 0
KMC4 241729Z 13009KT 12/M04 A3035 RMK A01 T01211044  RH  031%=      5-min Rain = 0
KMC4 241730Z 12008KT 12/M04 A3035 RMK A01 T01221044  RH  031%=      5-min Rain = 0
KMC4 241731Z 11011KT 12/M04 A3035 RMK A01 T01221043  RH  031%=      5-min Rain = 0
KMC4 241732Z 11011KT 12/M05 A3035 RMK A01 T01211045  RH  031%=      5-min Rain = 0
KMC4 241733Z 11008KT 12/M05 A3035 RMK A01 T01191046  RH  031%=      5-min Rain = 0
KMC4 241734Z 12010KT 12/M04 A3035 RMK A01 T01181044  RH  032%=      5-min Rain = 0
KMC4 241735Z 12011KT 12/M05 A3035 RMK A01 T01191047  RH  031%=      5-min Rain = 0
KMC4 241736Z 12010KT 12/M05 A3035 RMK A01 T01201048  RH  031%=      5-min Rain = 0
KMC4 241737Z 13010KT 12/M05 A3035 RMK A01 T01201047  RH  031%=      5-min Rain = 0
KMC4 241738Z 12011KT 12/M05 A3035 RMK A01 T01201048  RH  031%=      5-min Rain = 0
KMC4 241739Z 13008KT 12/M05 A3035 RMK A01 T01211045  RH  031%=      5-min Rain = 0
KMC4 241740Z 14013KT 12/M04 A3035 RMK A01 T01231044  RH  031%=      5-min Rain = 0
KMC4 241741Z 12010KT 13/M04 A3035 RMK A01 T01251043  RH  031%=      5-min Rain = 0
KMC4 241742Z 13009KT 13/M04 A3035 RMK A01 T01271043  RH  030%=      5-min Rain = 0
KMC4 241743Z 14011KT 13/M04 A3035 RMK A01 T01281043  RH  030%=      5-min Rain = 0
KMC4 241744Z 13009KT 13/M05 A3035 RMK A01 T01281045  RH  030%=      5-min Rain = 0
KMC4 241745Z 13008KT 13/M05 A3035 RMK A01 T01281046  RH  030%=      5-min Rain = 0
KMC4 241746Z 14011KT 13/M05 A3035 RMK A01 T01271046  RH  030%=      5-min Rain = 0
KMC4 241747Z 13011KT 13/M05 A3035 RMK A01 T01281046  RH  030%=      5-min Rain = 0
KMC4 241748Z 11010KT 13/M05 A3035 RMK A01 T01281045  RH  029%=      5-min Rain = 0
KMC4 241749Z 11008KT 13/M05 A3035 RMK A01 T01291045  RH  030%=      5-min Rain = 0
KMC4 241750Z 11009KT 13/M05 A3035 RMK A01 T01281048  RH  029%=      5-min Rain = 0
KMC4 241751Z 12009KT 13/M05 A3035 RMK A01 T01281049  RH  029%=      5-min Rain = 0
KMC4 241752Z 14009KT 13/M05 A3035 RMK A01 T01311046  RH  029%=      5-min Rain = 0
KMC4 241753Z 14009KT 13/M05 A3035 RMK A01 T01341046  RH  028%=      5-min Rain = 0
KMC4 241754Z 13008KT 13/M05 A3035 RMK A01 T01341047  RH  028%=      5-min Rain = 0
KMC4 241755Z 14012KT 13/M05 A3035 RMK A01 T01341046  RH  028%=      5-min Rain = 0
KMC4 241756Z 15010KT 14/M05 A3035 RMK A01 T01351047  RH  028%=      5-min Rain = 0
KMC4 241757Z 14009KT 13/M05 A3035 RMK A01 T01341046  RH  028%=      5-min Rain = 0
KMC4 241758Z 12010KT 14/M05 A3035 RMK A01 T01361045  RH  028%=      5-min Rain = 0
KMC4 241759Z 11009KT 14/M05 A3034 RMK A01 T01351050  RH  027%=      5-min Rain = 0
KMC4 241800Z 12011KT 13/M05 A3034 RMK A01 T01341049  RH  028%=      5-min Rain = 0
KMC4 241801Z 13009KT 13/M05 A3034 RMK A01 T01341046  RH  028%=      5-min Rain = 0
KMC4 241802Z 10009KT 14/M05 A3034 RMK A01 T01361050  RH  027%=      5-min Rain = 0
KMC4 241803Z 11008KT 14/M05 A3034 RMK A01 T01361052  RH  027%=      5-min Rain = 0
KMC4 241804Z 13008KT 14/M05 A3034 RMK A01 T01351052  RH  027%=      5-min Rain = 0
KMC4 241805Z 12009KT 14/M05 A3034 RMK A01 T01351052  RH  027%=      5-min Rain = 0
KMC4 241806Z 12011KT 14/M05 A3034 RMK A01 T01351050  RH  027%=      5-min Rain = 0
KMC4 241807Z 12008KT 14/M05 A3034 RMK A01 T01351054  RH  026%=      5-min Rain = 0
KMC4 241808Z 12007KT 13/M06 A3034 RMK A01 T01331056  RH  026%=      5-min Rain = 0
KMC4 241809Z 12010KT 13/M05 A3034 RMK A01 T01341053  RH  027%=      5-min Rain = 0
KMC4 241810Z 12008KT 13/M06 A3034 RMK A01 T01341055  RH  026%=      5-min Rain = 0
KMC4 241811Z 13009KT 14/M05 A3034 RMK A01 T01361052  RH  027%=      5-min Rain = 0
KMC4 241812Z 13011KT 14/M05 A3034 RMK A01 T01401050  RH  026%=      5-min Rain = 0
KMC4 241813Z 13010KT 14/M05 A3034 RMK A01 T01411051  RH  026%=      5-min Rain = 0
KMC4 241814Z 11008KT 14/M05 A3034 RMK A01 T01411054  RH  025%=      5-min Rain = 0
KMC4 241815Z 13011KT 14/M05 A3033 RMK A01 T01401052  RH  026%=      5-min Rain = 0
KMC4 241816Z 13008KT 14/M05 A3033 RMK A01 T01401051  RH  026%=      5-min Rain = 0
KMC4 241817Z 12006KT 14/M05 A3033 RMK A01 T01391053  RH  026%=      5-min Rain = 0
KMC4 241818Z 13008KT 14/M05 A3033 RMK A01 T01381050  RH  027%=      5-min Rain = 0
KMC4 241819Z 14011G16KT 14/M05 A3033 RMK A01 T01421047  RH  027%=      5-min Rain = 0
KMC4 241820Z 12013KT 15/M06 A3033 RMK A01 T01451056  RH  025%=      5-min Rain = 0
KMC4 241821Z 12012KT 14/M06 A3033 RMK A01 T01441060  RH  024%=      5-min Rain = 0
KMC4 241822Z 12010KT 14/M06 A3033 RMK A01 T01421058  RH  025%=      5-min Rain = 0
KMC4 241823Z 11009KT 14/M06 A3033 RMK A01 T01411056  RH  025%=      5-min Rain = 0
KMC4 241824Z 10008KT 14/M06 A3033 RMK A01 T01411058  RH  025%=      5-min Rain = 0
KMC4 241825Z 09011KT 14/M06 A3033 RMK A01 T01411058  RH  025%=      5-min Rain = 0
KMC4 241826Z 10010KT 14/M06 A3033 RMK A01 T01411060  RH  024%=      5-min Rain = 0
KMC4 241827Z 11010KT 14/M06 A3033 RMK A01 T01401060  RH  024%=      5-min Rain = 0
KMC4 241828Z 12008KT 14/M06 A3033 RMK A01 T01421061  RH  024%=      5-min Rain = 0
KMC4 241829Z 16009KT 14/M06 A3033 RMK A01 T01431061  RH  024%=      5-min Rain = 0
KMC4 241830Z 14008KT 14/M06 A3033 RMK A01 T01431059  RH  024%=      5-min Rain = 0
KMC4 241831Z 11008KT 15/M05 A3033 RMK A01 T01461053  RH  025%=      5-min Rain = 0
KMC4 241832Z 12010KT 15/M06 A3033 RMK A01 T01471061  RH  023%=      5-min Rain = 0
KMC4 241833Z 13010KT 15/M06 A3033 RMK A01 T01461055  RH  024%=      5-min Rain = 0
KMC4 241834Z 13009KT 15/M06 A3032 RMK A01 T01461055  RH  024%=      5-min Rain = 0
KMC4 241835Z 15009KT 15/M06 A3032 RMK A01 T01461056  RH  024%=      5-min Rain = 0
KMC4 241836Z 13008KT 15/M05 A3032 RMK A01 T01451053  RH  025%=      5-min Rain = 0
KMC4 241837Z 13011KT 15/M05 A3032 RMK A01 T01491050  RH  025%=      5-min Rain = 0
KMC4 241838Z 14012KT 15/M05 A3032 RMK A01 T01511052  RH  024%=      5-min Rain = 0
KMC4 241839Z 15011KT 15/M05 A3032 RMK A01 T01521054  RH  024%=      5-min Rain = 0
KMC4 241840Z 15010KT 15/M06 A3032 RMK A01 T01501058  RH  023%=      5-min Rain = 0
KMC4 241841Z 13009KT 15/M06 A3032 RMK A01 T01501057  RH  024%=      5-min Rain = 0
KMC4 241842Z 12010KT 15/M06 A3032 RMK A01 T01491058  RH  023%=      5-min Rain = 0
KMC4 241843Z 13010KT 15/M06 A3032 RMK A01 T01511057  RH  023%=      5-min Rain = 0
KMC4 241844Z 13007KT 15/M06 A3032 RMK A01 T01521056  RH  023%=      5-min Rain = 0
KMC4 241845Z 13010KT 15/M06 A3032 RMK A01 T01531057  RH  023%=      5-min Rain = 0
KMC4 241846Z 12010KT 15/M06 A3032 RMK A01 T01531055  RH  023%=      5-min Rain = 0
KMC4 241847Z 12010KT 15/M06 A3032 RMK A01 T01531057  RH  023%=      5-min Rain = 0
KMC4 241848Z 13014KT 15/M06 A3032 RMK A01 T01531057  RH  023%=      5-min Rain = 0
KMC4 241849Z 13013KT 15/M06 A3031 RMK A01 T01521055  RH  023%=      5-min Rain = 0
KMC4 241850Z 13010KT 15/M05 A3031 RMK A01 T01531054  RH  024%=      5-min Rain = 0
KMC4 241851Z 13009KT 15/M06 A3031 RMK A01 T01531055  RH  023%=      5-min Rain = 0
KMC4 241852Z 14007KT 15/M06 A3031 RMK A01 T01521057  RH  023%=      5-min Rain = 0
KMC4 241853Z 15010KT 15/M06 A3031 RMK A01 T01511056  RH  023%=      5-min Rain = 0
KMC4 241854Z 15008KT 15/M05 A3031 RMK A01 T01531053  RH  024%=      5-min Rain = 0
KMC4 241855Z 14012KT 15/M05 A3031 RMK A01 T01541054  RH  023%=      5-min Rain = 0
KMC4 241856Z 13010KT 15/M06 A3031 RMK A01 T01531055  RH  023%=      5-min Rain = 0
KMC4 241857Z 13009KT 15/M05 A3031 RMK A01 T01531054  RH  024%=      5-min Rain = 0
KMC4 241858Z 15010KT 15/M05 A3031 RMK A01 T01531052  RH  024%=      5-min Rain = 0
KMC4 241859Z 16008KT 15/M05 A3031 RMK A01 T01531053  RH  024%=      5-min Rain = 0
KMC4 241900Z 15010KT 15/M05 A303 RMK A01 T01511051  RH  024%=      5-min Rain = 0
KMC4 241901Z 16011KT 15/M05 A303 RMK A01 T01541048  RH  024%=      5-min Rain = 0
KMC4 241902Z 14010KT 15/M05 A303 RMK A01 T01531051  RH  024%=      5-min Rain = 0
KMC4 241903Z 11010KT 15/M05 A303 RMK A01 T01541050  RH  024%=      5-min Rain = 0
KMC4 241904Z 14007KT 16/M05 A303 RMK A01 T01551051  RH  024%=      5-min Rain = 0
KMC4 241905Z 15010KT 16/M05 A303 RMK A01 T01561051  RH  024%=      5-min Rain = 0
KMC4 241906Z 15010KT 16/M05 A303 RMK A01 T01551053  RH  023%=      5-min Rain = 0
KMC4 241907Z 14007KT 16/M05 A303 RMK A01 T01551054  RH  023%=      5-min Rain = 0
KMC4 241908Z 13008KT 15/M05 A303 RMK A01 T01541053  RH  024%=      5-min Rain = 0
KMC4 241909Z 12010KT 16/M05 A303 RMK A01 T01571048  RH  024%=      5-min Rain = 0
KMC4 241910Z 12009KT 16/M05 A303 RMK A01 T01611050  RH  023%=      5-min Rain = 0
KMC4 241911Z 12010KT 16/M05 A303 RMK A01 T01591053  RH  023%=      5-min Rain = 0
KMC4 241912Z 13008KT 16/M06 A303 RMK A01 T01551056  RH  023%=      5-min Rain = 0
KMC4 241913Z 13013KT 16/M05 A3029 RMK A01 T01551054  RH  023%=      5-min Rain = 0
KMC4 241914Z 13012KT 16/M06 A3029 RMK A01 T01551055  RH  023%=      5-min Rain = 0
KMC4 241915Z 15012KT 16/M06 A3029 RMK A01 T01551055  RH  023%=      5-min Rain = 0
KMC4 241916Z 16010KT 16/M05 A3029 RMK A01 T01561053  RH  023%=      5-min Rain = 0
KMC4 241917Z 16013KT 16/M05 A3029 RMK A01 T01561054  RH  023%=      5-min Rain = 0
KMC4 241918Z 15012KT 16/M05 A3029 RMK A01 T01561054  RH  023%=      5-min Rain = 0
KMC4 241919Z 15007KT 16/M05 A3029 RMK A01 T01561054  RH  023%=      5-min Rain = 0
KMC4 241920Z 16008G14KT 15/M06 A3029 RMK A01 T01541055  RH  023%=      5-min Rain = 0
KMC4 241921Z 14013KT 16/M05 A3029 RMK A01 T01551053  RH  023%=      5-min Rain = 0
KMC4 241922Z 16011KT 16/M06 A3029 RMK A01 T01561056  RH  023%=      5-min Rain = 0
KMC4 241923Z 17009KT 16/M06 A3029 RMK A01 T01571055  RH  023%=      5-min Rain = 0
KMC4 241924Z 12011KT 16/M06 A3029 RMK A01 T01561055  RH  023%=      5-min Rain = 0
KMC4 241925Z 12012KT 16/M06 A3028 RMK A01 T01571057  RH  022%=      5-min Rain = 0
KMC4 241926Z 10011KT 16/M06 A3028 RMK A01 T01571057  RH  022%=      5-min Rain = 0
KMC4 241927Z 11011KT 16/M05 A3028 RMK A01 T01591052  RH  023%=      5-min Rain = 0
KMC4 241928Z 11010KT 16/M05 A3028 RMK A01 T01581054  RH  023%=      5-min Rain = 0
KMC4 241929Z 12011KT 16/M05 A3028 RMK A01 T01571052  RH  023%=      5-min Rain = 0
KMC4 241930Z 10008KT 16/M05 A3028 RMK A01 T01571053  RH  023%=      5-min Rain = 0
KMC4 241931Z 10007KT 16/M05 A3028 RMK A01 T01551054  RH  023%=      5-min Rain = 0
KMC4 241932Z 14009KT 16/M05 A3028 RMK A01 T01551051  RH  024%=      5-min Rain = 0
KMC4 241933Z 16009KT 16/M05 A3028 RMK A01 T01571051  RH  023%=      5-min Rain = 0
KMC4 241934Z 14013G18KT 16/M05 A3028 RMK A01 T01591050  RH  023%=      5-min Rain = 0
KMC4 241935Z 14012KT 16/M05 A3028 RMK A01 T01611051  RH  023%=      5-min Rain = 0
KMC4 241936Z 14013KT 16/M05 A3028 RMK A01 T01621051  RH  023%=      5-min Rain = 0
KMC4 241937Z 14012KT 16/M05 A3028 RMK A01 T01641054  RH  022%=      5-min Rain = 0
KMC4 241938Z 13010KT 16/M06 A3028 RMK A01 T01601061  RH  021%=      5-min Rain = 0
KMC4 241939Z 14011KT 16/M06 A3028 RMK A01 T01581061  RH  022%=      5-min Rain = 0
KMC4 241940Z 13012KT 16/M06 A3027 RMK A01 T01571059  RH  022%=      5-min Rain = 0
KMC4 241941Z 14011KT 16/M06 A3027 RMK A01 T01571061  RH  022%=      5-min Rain = 0
KMC4 241942Z 14014KT 16/M06 A3027 RMK A01 T01581059  RH  022%=      5-min Rain = 0
KMC4 241943Z 12010KT 16/M06 A3027 RMK A01 T01591058  RH  022%=      5-min Rain = 0
KMC4 241944Z 14012KT 16/M05 A3027 RMK A01 T01611054  RH  022%=      5-min Rain = 0
KMC4 241945Z 14013KT 16/M05 A3027 RMK A01 T01641052  RH  022%=      5-min Rain = 0
KMC4 241946Z 13008G13KT 16/M06 A3027 RMK A01 T01631057  RH  022%=      5-min Rain = 0
KMC4 241947Z 12008KT 16/M06 A3027 RMK A01 T01611058  RH  022%=      5-min Rain = 0
KMC4 241948Z 14006KT 16/M06 A3027 RMK A01 T01601057  RH  022%=      5-min Rain = 0
KMC4 241949Z 10005KT 16/M05 A3027 RMK A01 T01601054  RH  022%=      5-min Rain = 0
KMC4 241950Z 10007KT 16/M05 A3027 RMK A01 T01621052  RH  023%=      5-min Rain = 0
KMC4 241951Z 12008KT 16/M06 A3027 RMK A01 T01631055  RH  022%=      5-min Rain = 0
KMC4 241952Z 13011KT 16/M05 A3027 RMK A01 T01641053  RH  022%=      5-min Rain = 0
KMC4 241953Z 13009KT 16/M06 A3026 RMK A01 T01641057  RH  021%=      5-min Rain = 0
KMC4 241954Z 12013KT 16/M06 A3026 RMK A01 T01641059  RH  021%=      5-min Rain = 0
KMC4 241955Z 11011KT 16/M06 A3026 RMK A01 T01601059  RH  022%=      5-min Rain = 0
KMC4 241956Z 11007KT 16/M06 A3026 RMK A01 T01581057  RH  022%=      5-min Rain = 0
KMC4 241957Z 10010KT 16/M06 A3026 RMK A01 T01571056  RH  022%=      5-min Rain = 0
KMC4 241958Z 12011KT 16/M05 A3026 RMK A01 T01611050  RH  023%=      5-min Rain = 0
KMC4 241959Z 15008KT 16/M05 A3026 RMK A01 T01641052  RH  022%=      5-min Rain = 0
KMC4 242000Z 15008KT 16/M05 A3026 RMK A01 T01641052  RH  022%=      5-min Rain = 0
KMC4 242001Z 11009G14KT 16/M05 A3025 RMK A01 T01641052  RH  022%=      5-min Rain = 0
KMC4 242002Z 11014KT 16/M05 A3025 RMK A01 T01641052  RH  022%=      5-min Rain = 0
KMC4 242003Z 12014KT 16/M06 A3025 RMK A01 T01611055  RH  022%=      5-min Rain = 0
KMC4 242004Z 12012KT 16/M05 A3025 RMK A01 T01601052  RH  023%=      5-min Rain = 0
KMC4 242005Z 10012KT 16/M05 A3025 RMK A01 T01621050  RH  023%=      5-min Rain = 0
KMC4 242006Z 10010KT 16/M05 A3025 RMK A01 T01621052  RH  023%=      5-min Rain = 0
KMC4 242007Z 10013KT 16/M05 A3024 RMK A01 T01621050  RH  023%=      5-min Rain = 0
KMC4 242008Z 10013KT 16/M05 A3024 RMK A01 T01611051  RH  023%=      5-min Rain = 0
KMC4 242009Z 11010KT 16/M05 A3024 RMK A01 T01611050  RH  023%=      5-min Rain = 0
KMC4 242010Z 12008KT 16/M05 A3024 RMK A01 T01621049  RH  023%=      5-min Rain = 0
KMC4 242011Z 11012G18KT 16/M05 A3024 RMK A01 T01621052  RH  023%=      5-min Rain = 0
KMC4 242012Z 11014KT 16/M05 A3024 RMK A01 T01621053  RH  023%=      5-min Rain = 0
KMC4 242013Z 11016KT 16/M05 A3024 RMK A01 T01631053  RH  022%=      5-min Rain = 0
KMC4 242014Z 11013G18KT 16/M05 A3024 RMK A01 T01621054  RH  022%=      5-min Rain = 0
KMC4 242015Z 12012KT 16/M05 A3024 RMK A01 T01631054  RH  022%=      5-min Rain = 0
KMC4 242016Z 12009KT 16/M06 A3024 RMK A01 T01631055  RH  022%=      5-min Rain = 0
KMC4 242017Z 12010KT 17/M05 A3023 RMK A01 T01651049  RH  023%=      5-min Rain = 0
KMC4 242018Z 13014KT 17/M05 A3023 RMK A01 T01681051  RH  022%=      5-min Rain = 0
KMC4 242019Z 12015KT 17/M06 A3023 RMK A01 T01691058  RH  021%=      5-min Rain = 0
KMC4 242020Z 12013KT 17/M05 A3023 RMK A01 T01681051  RH  022%=      5-min Rain = 0
KMC4 242021Z 14013KT 17/M05 A3023 RMK A01 T01701050  RH  022%=      5-min Rain = 0
KMC4 242022Z 14014KT 17/M06 A3023 RMK A01 T01701056  RH  021%=      5-min Rain = 0
KMC4 242023Z 14013KT 17/M05 A3023 RMK A01 T01691052  RH  022%=      5-min Rain = 0
KMC4 242024Z 14012KT 17/M05 A3023 RMK A01 T01711048  RH  022%=      5-min Rain = 0
KMC4 242025Z 15012KT 17/M05 A3023 RMK A01 T01701050  RH  022%=      5-min Rain = 0
KMC4 242026Z 15012KT 17/M05 A3023 RMK A01 T01691049  RH  022%=      5-min Rain = 0
KMC4 242027Z 15012KT 17/M05 A3023 RMK A01 T01691051  RH  022%=      5-min Rain = 0
KMC4 242028Z 14013KT 17/M05 A3023 RMK A01 T01671050  RH  022%=      5-min Rain = 0
KMC4 242029Z 14011KT 17/M05 A3023 RMK A01 T01671054  RH  021%=      5-min Rain = 0
KMC4 242030Z 13012KT 17/M05 A3023 RMK A01 T01681054  RH  021%=      5-min Rain = 0
KMC4 242031Z 15012KT 17/M05 A3022 RMK A01 T01701054  RH  021%=      5-min Rain = 0
KMC4 242032Z 16014KT 17/M06 A3022 RMK A01 T01721056  RH  020%=      5-min Rain = 0
KMC4 242033Z 15013KT 17/M06 A3022 RMK A01 T01741055  RH  020%=      5-min Rain = 0
KMC4 242034Z 16012KT 18/M05 A3022 RMK A01 T01751051  RH  021%=      5-min Rain = 0
KMC4 242035Z 17011KT 17/M05 A3022 RMK A01 T01741053  RH  021%=      5-min Rain = 0
KMC4 242036Z 16010KT 17/M05 A3022 RMK A01 T01721051  RH  021%=      5-min Rain = 0
KMC4 242037Z 11012KT 17/M05 A3022 RMK A01 T01711049  RH  022%=      5-min Rain = 0
KMC4 242038Z 11011KT 17/M05 A3022 RMK A01 T01711052  RH  021%=      5-min Rain = 0
KMC4 242039Z 11009KT 17/M05 A3022 RMK A01 T01681054  RH  021%=      5-min Rain = 0
KMC4 242040Z 10006KT 17/M05 A3022 RMK A01 T01671053  RH  022%=      5-min Rain = 0
KMC4 242041Z 12007KT 17/M05 A3022 RMK A01 T01681049  RH  022%=      5-min Rain = 0
KMC4 242042Z 14009KT 17/M05 A3022 RMK A01 T01711046  RH  022%=      5-min Rain = 0
KMC4 242043Z 13012KT 18/M05 A3022 RMK A01 T01751046  RH  022%=      5-min Rain = 0
KMC4 242044Z 15014KT 18/M05 A3022 RMK A01 T01761054  RH  020%=      5-min Rain = 0
KMC4 242045Z 16012KT 18/M06 A3022 RMK A01 T01761058  RH  020%=      5-min Rain = 0
KMC4 242046Z 15013KT 17/M06 A3022 RMK A01 T01731056  RH  020%=      5-min Rain = 0
KMC4 242047Z 13011KT 17/M05 A3022 RMK A01 T01721054  RH  021%=      5-min Rain = 0
KMC4 242048Z 13012KT 17/M05 A3022 RMK A01 T01721050  RH  022%=      5-min Rain = 0
KMC4 242049Z 14010KT 17/M05 A3022 RMK A01 T01721049  RH  022%=      5-min Rain = 0
KMC4 242050Z 13010KT 17/M05 A3022 RMK A01 T01721048  RH  022%=      5-min Rain = 0
KMC4 242051Z 13010KT 17/M05 A3022 RMK A01 T01721048  RH  022%=      5-min Rain = 0
KMC4 242052Z 14009KT 17/M05 A3022 RMK A01 T01711049  RH  022%=      5-min Rain = 0
KMC4 242053Z 13010KT 17/M05 A3022 RMK A01 T01711046  RH  022%=      5-min Rain = 0
KMC4 242054Z 14013KT 17/M05 A3022 RMK A01 T01731048  RH  022%=      5-min Rain = 0
KMC4 242055Z 14014KT 18/M06 A3022 RMK A01 T01751055  RH  020%=      5-min Rain = 0
KMC4 242056Z 13012KT 17/M06 A3022 RMK A01 T01741057  RH  020%=      5-min Rain = 0
KMC4 242057Z 12010KT 17/M06 A3022 RMK A01 T01741056  RH  020%=      5-min Rain = 0
KMC4 242058Z 14008KT 17/M06 A3022 RMK A01 T01721058  RH  020%=      5-min Rain = 0
KMC4 242059Z 13008KT 17/M06 A3022 RMK A01 T01711056  RH  021%=      5-min Rain = 0
KMC4 242100Z 13011KT 17/M06 A3022 RMK A01 T01721056  RH  021%=      5-min Rain = 0
KMC4 242101Z 13012KT 17/M05 A3022 RMK A01 T01721053  RH  021%=      5-min Rain = 0
KMC4 242102Z 13008KT 17/M05 A3022 RMK A01 T01721051  RH  021%=      5-min Rain = 0
KMC4 242103Z 12008KT 17/M05 A3022 RMK A01 T01721053  RH  021%=      5-min Rain = 0
KMC4 242104Z 12005KT 17/M05 A3021 RMK A01 T01721049  RH  022%=      5-min Rain = 0
KMC4 242105Z 14007KT 17/M05 A3021 RMK A01 T01731051  RH  021%=      5-min Rain = 0
KMC4 242106Z 12010KT 17/M05 A3021 RMK A01 T01731051  RH  021%=      5-min Rain = 0
KMC4 242107Z 12011KT 17/M05 A3021 RMK A01 T01741052  RH  021%=      5-min Rain = 0
KMC4 242108Z 12011KT 17/M05 A3021 RMK A01 T01741054  RH  021%=      5-min Rain = 0
KMC4 242109Z 11011KT 17/M06 A3021 RMK A01 T01721058  RH  020%=      5-min Rain = 0
KMC4 242110Z 11009KT 17/M06 A3021 RMK A01 T01701057  RH  021%=      5-min Rain = 0
KMC4 242111Z 12008KT 17/M06 A3021 RMK A01 T01691058  RH  021%=      5-min Rain = 0
KMC4 242112Z 14010KT 17/M06 A3021 RMK A01 T01691055  RH  021%=      5-min Rain = 0
KMC4 242113Z 15015KT 17/M06 A3021 RMK A01 T01731056  RH  020%=      5-min Rain = 0
KMC4 242114Z 16015KT 17/M06 A3021 RMK A01 T01741062  RH  019%=      5-min Rain = 0
KMC4 242115Z 14011KT 17/M06 A3021 RMK A01 T01731060  RH  020%=      5-min Rain = 0
KMC4 242116Z 14008KT 17/M06 A3021 RMK A01 T01731058  RH  020%=      5-min Rain = 0
KMC4 242117Z 15009KT 18/M05 A3021 RMK A01 T01751054  RH  020%=      5-min Rain = 0
KMC4 242118Z 12009G14KT 18/M06 A3021 RMK A01 T01761057  RH  020%=      5-min Rain = 0
KMC4 242119Z 11010KT 18/M06 A3021 RMK A01 T01751055  RH  020%=      5-min Rain = 0
KMC4 242120Z 11013KT 18/M06 A302 RMK A01 T01751056  RH  020%=      5-min Rain = 0
KMC4 242121Z 12013KT 17/M06 A302 RMK A01 T01731058  RH  020%=      5-min Rain = 0
KMC4 242122Z 13013KT 17/M06 A302 RMK A01 T01741057  RH  020%=      5-min Rain = 0
KMC4 242123Z 13012KT 18/M06 A3021 RMK A01 T01751058  RH  020%=      5-min Rain = 0
KMC4 242124Z 14012KT 18/M06 A3021 RMK A01 T01761060  RH  019%=      5-min Rain = 0
KMC4 242125Z 15009KT 18/M07 A3021 RMK A01 T01751065  RH  019%=      5-min Rain = 0
KMC4 242126Z 14008KT 17/M06 A302 RMK A01 T01741061  RH  020%=      5-min Rain = 0
KMC4 242127Z 12007KT 18/M06 A302 RMK A01 T01751060  RH  020%=      5-min Rain = 0
KMC4 242128Z 12009KT 18/M06 A302 RMK A01 T01751064  RH  019%=      5-min Rain = 0
KMC4 242129Z 14014KT 17/M06 A302 RMK A01 T01741063  RH  019%=      5-min Rain = 0
KMC4 242130Z 15016KT 18/M06 A302 RMK A01 T01761064  RH  019%=      5-min Rain = 0
KMC4 242131Z 15015KT 18/M07 A302 RMK A01 T01761065  RH  019%=      5-min Rain = 0
KMC4 242132Z 15013KT 18/M07 A302 RMK A01 T01771065  RH  019%=      5-min Rain = 0
KMC4 242133Z 15011KT 18/M06 A302 RMK A01 T01771060  RH  019%=      5-min Rain = 0
KMC4 242134Z 14013KT 18/M06 A302 RMK A01 T01791059  RH  019%=      5-min Rain = 0
KMC4 242135Z 14014KT 18/M06 A302 RMK A01 T01801058  RH  019%=      5-min Rain = 0
KMC4 242136Z 14013KT 18/M06 A302 RMK A01 T01801058  RH  019%=      5-min Rain = 0
KMC4 242137Z 15015KT 18/M06 A302 RMK A01 T01791059  RH  019%=      5-min Rain = 0
KMC4 242138Z 15013KT 18/M06 A302 RMK A01 T01781062  RH  019%=      5-min Rain = 0
KMC4 242139Z 16008KT 18/M06 A302 RMK A01 T01751064  RH  019%=      5-min Rain = 0
KMC4 242140Z 15010KT 17/M06 A3019 RMK A01 T01731062  RH  020%=      5-min Rain = 0
KMC4 242141Z 12011KT 17/M06 A3019 RMK A01 T01741060  RH  020%=      5-min Rain = 0
KMC4 242142Z 12013KT 18/M06 A3019 RMK A01 T01761062  RH  019%=      5-min Rain = 0
KMC4 242143Z 12011KT 18/M06 A3019 RMK A01 T01761064  RH  019%=      5-min Rain = 0
KMC4 242144Z 13010KT 18/M06 A3019 RMK A01 T01751062  RH  019%=      5-min Rain = 0
KMC4 242145Z 14011KT 18/M06 A3019 RMK A01 T01771061  RH  019%=      5-min Rain = 0
KMC4 242146Z 14013KT 18/M06 A3019 RMK A01 T01771062  RH  019%=      5-min Rain = 0
KMC4 242147Z 13014KT 18/M06 A3019 RMK A01 T01791062  RH  019%=      5-min Rain = 0
KMC4 242148Z 13014KT 18/M06 A3019 RMK A01 T01801062  RH  019%=      5-min Rain = 0
KMC4 242149Z 13013KT 18/M06 A3019 RMK A01 T01801064  RH  018%=      5-min Rain = 0
KMC4 242150Z 13015KT 18/M06 A3019 RMK A01 T01801063  RH  019%=      5-min Rain = 0
KMC4 242151Z 13012KT 18/M07 A3019 RMK A01 T01801066  RH  018%=      5-min Rain = 0
KMC4 242152Z 13011KT 18/M07 A3019 RMK A01 T01771066  RH  018%=      5-min Rain = 0
KMC4 242153Z 12015KT 18/M06 A3019 RMK A01 T01761064  RH  019%=      5-min Rain = 0
KMC4 242154Z 12014KT 18/M06 A3019 RMK A01 T01761063  RH  019%=      5-min Rain = 0
KMC4 242155Z 12014KT 18/M06 A3019 RMK A01 T01751064  RH  019%=      5-min Rain = 0
KMC4 242156Z 13012KT 18/M06 A3019 RMK A01 T01751064  RH  019%=      5-min Rain = 0
KMC4 242157Z 13011KT 17/M06 A3019 RMK A01 T01741064  RH  019%=      5-min Rain = 0
KMC4 242158Z 13010KT 17/M06 A3019 RMK A01 T01741063  RH  019%=      5-min Rain = 0
KMC4 242159Z 13013KT 18/M06 A3019 RMK A01 T01761061  RH  019%=      5-min Rain = 0
KMC4 242200Z 12014KT 18/M07 A3019 RMK A01 T01771065  RH  019%=      5-min Rain = 0
KMC4 242201Z 12014KT 18/M07 A3019 RMK A01 T01771066  RH  018%=      5-min Rain = 0
KMC4 242202Z 12012KT 18/M07 A3019 RMK A01 T01771068  RH  018%=      5-min Rain = 0
KMC4 242203Z 11011KT 18/M07 A3019 RMK A01 T01761069  RH  018%=      5-min Rain = 0
KMC4 242204Z 12009KT 18/M07 A3019 RMK A01 T01751068  RH  018%=      5-min Rain = 0
KMC4 242205Z 12008KT 18/M07 A3019 RMK A01 T01761066  RH  019%=      5-min Rain = 0
KMC4 242206Z 12011KT 18/M07 A3019 RMK A01 T01781067  RH  018%=      5-min Rain = 0
KMC4 242207Z 12014KT 18/M07 A3019 RMK A01 T01781067  RH  018%=      5-min Rain = 0
KMC4 242208Z 11013KT 18/M07 A3018 RMK A01 T01781069  RH  018%=      5-min Rain = 0
KMC4 242209Z 11012KT 18/M07 A3019 RMK A01 T01761069  RH  018%=      5-min Rain = 0
KMC4 242210Z 10014KT 18/M07 A3019 RMK A01 T01751069  RH  018%=      5-min Rain = 0
KMC4 242211Z 11011KT 17/M07 A3019 RMK A01 T01741068  RH  018%=      5-min Rain = 0
KMC4 242212Z 14015KT 18/M06 A3019 RMK A01 T01751064  RH  019%=      5-min Rain = 0
KMC4 242213Z 15013KT 18/M07 A3019 RMK A01 T01781065  RH  018%=      5-min Rain = 0
KMC4 242214Z 15011KT 18/M07 A3019 RMK A01 T01781066  RH  018%=      5-min Rain = 0
KMC4 242215Z 16009KT 18/M07 A3019 RMK A01 T01771067  RH  018%=      5-min Rain = 0
KMC4 242216Z 15007KT 18/M07 A3019 RMK A01 T01761065  RH  019%=      5-min Rain = 0
KMC4 242217Z 12010KT 18/M06 A3019 RMK A01 T01771060  RH  019%=      5-min Rain = 0
KMC4 242218Z 13013KT 18/M06 A3019 RMK A01 T01781063  RH  019%=      5-min Rain = 0
KMC4 242219Z 13011KT 18/M07 A3019 RMK A01 T01781065  RH  018%=      5-min Rain = 0
KMC4 242220Z 12009KT 18/M07 A3019 RMK A01 T01781065  RH  018%=      5-min Rain = 0
KMC4 242221Z 13010KT 18/M06 A3019 RMK A01 T01771062  RH  019%=      5-min Rain = 0
KMC4 242222Z 12011KT 18/M06 A3019 RMK A01 T01791062  RH  019%=      5-min Rain = 0
KMC4 242223Z 14011KT 18/M07 A3019 RMK A01 T01781066  RH  018%=      5-min Rain = 0
KMC4 242224Z 13013KT 18/M06 A3019 RMK A01 T01781062  RH  019%=      5-min Rain = 0
KMC4 242225Z 12013KT 18/M06 A3019 RMK A01 T01801061  RH  019%=      5-min Rain = 0
KMC4 242226Z 12013KT 18/M07 A3019 RMK A01 T01791065  RH  018%=      5-min Rain = 0
KMC4 242227Z 12014KT 18/M06 A3019 RMK A01 T01781063  RH  019%=      5-min Rain = 0
KMC4 242228Z 14012KT 18/M06 A3019 RMK A01 T01781062  RH  019%=      5-min Rain = 0
KMC4 242229Z 13012KT 18/M06 A3019 RMK A01 T01781062  RH  019%=      5-min Rain = 0
KMC4 242230Z 12010KT 18/M06 A3019 RMK A01 T01791063  RH  019%=      5-min Rain = 0
KMC4 242231Z 12012KT 18/M06 A3019 RMK A01 T01791062  RH  019%=      5-min Rain = 0
KMC4 242232Z 13012KT 18/M06 A3019 RMK A01 T01801063  RH  019%=      5-min Rain = 0
KMC4 242233Z 13011KT 18/M06 A3019 RMK A01 T01801063  RH  019%=      5-min Rain = 0
KMC4 242234Z 13009KT 18/M06 A3018 RMK A01 T01791063  RH  019%=      5-min Rain = 0
KMC4 242235Z 13010KT 18/M06 A3018 RMK A01 T01791064  RH  019%=      5-min Rain = 0
KMC4 242236Z 14014KT 18/M06 A3018 RMK A01 T01791064  RH  019%=      5-min Rain = 0
KMC4 242237Z 14015KT 18/M07 A3018 RMK A01 T01791067  RH  018%=      5-min Rain = 0
KMC4 242238Z 13013KT 18/M07 A3018 RMK A01 T01791072  RH  017%=      5-min Rain = 0
KMC4 242239Z 13012KT 18/M07 A3018 RMK A01 T01791069  RH  018%=      5-min Rain = 0
KMC4 242240Z 13013KT 18/M06 A3018 RMK A01 T01791064  RH  018%=      5-min Rain = 0
KMC4 242241Z 13014KT 18/M07 A3018 RMK A01 T01791065  RH  018%=      5-min Rain = 0
KMC4 242242Z 13011KT 18/M06 A3018 RMK A01 T01791064  RH  019%=      5-min Rain = 0
KMC4 242243Z 14010KT 18/M06 A3018 RMK A01 T01781062  RH  019%=      5-min Rain = 0
KMC4 242244Z 14012KT 18/M06 A3018 RMK A01 T01781061  RH  019%=      5-min Rain = 0
KMC4 242245Z 14010KT 18/M06 A3018 RMK A01 T01791062  RH  019%=      5-min Rain = 0
KMC4 242246Z 12012KT 18/M06 A3018 RMK A01 T01791062  RH  019%=      5-min Rain = 0
KMC4 242247Z 12011KT 18/M06 A3018 RMK A01 T01781061  RH  019%=      5-min Rain = 0
KMC4 242248Z 14014KT 18/M06 A3018 RMK A01 T01791060  RH  019%=      5-min Rain = 0
KMC4 242249Z 14015KT 18/M06 A3018 RMK A01 T01801062  RH  019%=      5-min Rain = 0
KMC4 242250Z 15016KT 18/M06 A3018 RMK A01 T01791064  RH  018%=      5-min Rain = 0
KMC4 242251Z 14011KT 18/M07 A3018 RMK A01 T01771066  RH  019%=      5-min Rain = 0
KMC4 242252Z 12012KT 18/M06 A3018 RMK A01 T01771064  RH  019%=      5-min Rain = 0
KMC4 242253Z 13011KT 18/M06 A3018 RMK A01 T01771064  RH  019%=      5-min Rain = 0
KMC4 242254Z 12011KT 18/M06 A3018 RMK A01 T01771064  RH  019%=      5-min Rain = 0
KMC4 242255Z 12015KT 18/M06 A3018 RMK A01 T01771064  RH  019%=      5-min Rain = 0
KMC4 242256Z 14014KT 18/M07 A3018 RMK A01 T01771065  RH  019%=      5-min Rain = 0
KMC4 242257Z 14015KT 18/M07 A3018 RMK A01 T01781069  RH  018%=      5-min Rain = 0
KMC4 242258Z 13014KT 18/M07 A3018 RMK A01 T01781070  RH  018%=      5-min Rain = 0
KMC4 242259Z 13013KT 18/M07 A3018 RMK A01 T01781068  RH  018%=      5-min Rain = 0
KMC4 242300Z 12011KT 18/M07 A3018 RMK A01 T01781065  RH  018%=      5-min Rain = 0
KMC4 242301Z 13011KT 18/M07 A3018 RMK A01 T01791066  RH  018%=      5-min Rain = 0
KMC4 242302Z 12013KT 18/M07 A3018 RMK A01 T01801067  RH  018%=      5-min Rain = 0
KMC4 242303Z 14012KT 18/M07 A3018 RMK A01 T01801067  RH  018%=      5-min Rain = 0
KMC4 242304Z 15014KT 18/M07 A3018 RMK A01 T01801066  RH  018%=      5-min Rain = 0
KMC4 242305Z 15012KT 18/M07 A3018 RMK A01 T01811067  RH  018%=      5-min Rain = 0
KMC4 242306Z 15013KT 18/M07 A3017 RMK A01 T01801068  RH  018%=      5-min Rain = 0
KMC4 242307Z 15013KT 18/M07 A3017 RMK A01 T01791071  RH  017%=      5-min Rain = 0
KMC4 242308Z 13013KT 18/M07 A3017 RMK A01 T01791070  RH  018%=      5-min Rain = 0
KMC4 242309Z 14012KT 18/M07 A3017 RMK A01 T01791071  RH  018%=      5-min Rain = 0
KMC4 242310Z 15012KT 18/M07 A3017 RMK A01 T01781070  RH  018%=      5-min Rain = 0
KMC4 242311Z 15014KT 18/M07 A3017 RMK A01 T01791070  RH  018%=      5-min Rain = 0
KMC4 242312Z 14013KT 18/M07 A3017 RMK A01 T01781069  RH  018%=      5-min Rain = 0
KMC4 242313Z 14014KT 18/M07 A3017 RMK A01 T01781067  RH  018%=      5-min Rain = 0
KMC4 242314Z 14014KT 18/M07 A3017 RMK A01 T01791067  RH  018%=      5-min Rain = 0
KMC4 242315Z 13013KT 18/M07 A3017 RMK A01 T01791067  RH  018%=      5-min Rain = 0
KMC4 242316Z 13014KT 18/M07 A3017 RMK A01 T01781069  RH  018%=      5-min Rain = 0
KMC4 242317Z 14014KT 18/M07 A3017 RMK A01 T01781069  RH  018%=      5-min Rain = 0
KMC4 242318Z 15014G19KT 18/M07 A3017 RMK A01 T01771068  RH  018%=      5-min Rain = 0
KMC4 242319Z 14017KT 18/M07 A3016 RMK A01 T01781068  RH  018%=      5-min Rain = 0
KMC4 242320Z 14015KT 18/M07 A3017 RMK A01 T01771070  RH  018%=      5-min Rain = 0
KMC4 242321Z 13012KT 18/M07 A3017 RMK A01 T01761069  RH  018%=      5-min Rain = 0
KMC4 242322Z 13012G17KT 18/M07 A3017 RMK A01 T01761067  RH  018%=      5-min Rain = 0
KMC4 242323Z 13016KT 18/M07 A3017 RMK A01 T01771066  RH  018%=      5-min Rain = 0
KMC4 242324Z 12014KT 18/M07 A3017 RMK A01 T01771065  RH  018%=      5-min Rain = 0
KMC4 242325Z 13013KT 18/M07 A3017 RMK A01 T01771066  RH  018%=      5-min Rain = 0
KMC4 242326Z 14012KT 18/M07 A3017 RMK A01 T01761066  RH  019%=      5-min Rain = 0
KMC4 242327Z 14012KT 18/M07 A3017 RMK A01 T01761066  RH  019%=      5-min Rain = 0
KMC4 242328Z 13011KT 18/M06 A3017 RMK A01 T01761064  RH  019%=      5-min Rain = 0
KMC4 242329Z 12012KT 18/M06 A3017 RMK A01 T01761064  RH  019%=      5-min Rain = 0
KMC4 242330Z 12015KT 18/M07 A3017 RMK A01 T01761066  RH  019%=      5-min Rain = 0
KMC4 242331Z 11012KT 18/M07 A3017 RMK A01 T01751070  RH  018%=      5-min Rain = 0
KMC4 242332Z 11012KT 17/M07 A3017 RMK A01 T01741069  RH  018%=      5-min Rain = 0
KMC4 242333Z 11013KT 17/M07 A3017 RMK A01 T01741068  RH  018%=      5-min Rain = 0
KMC4 242334Z 12011KT 17/M07 A3017 RMK A01 T01741070  RH  018%=      5-min Rain = 0
KMC4 242335Z 12012G18KT 17/M07 A3017 RMK A01 T01741069  RH  018%=      5-min Rain = 0
KMC4 242336Z 12015KT 17/M07 A3017 RMK A01 T01741069  RH  018%=      5-min Rain = 0
KMC4 242337Z 12013KT 17/M07 A3017 RMK A01 T01741070  RH  018%=      5-min Rain = 0
KMC4 242338Z 12013KT 17/M07 A3017 RMK A01 T01741070  RH  018%=      5-min Rain = 0
KMC4 242339Z 12013KT 17/M07 A3017 RMK A01 T01731072  RH  018%=      5-min Rain = 0
KMC4 242340Z 12012G17KT 17/M07 A3017 RMK A01 T01731072  RH  018%=      5-min Rain = 0
KMC4 242341Z 12014KT 17/M07 A3017 RMK A01 T01731072  RH  018%=      5-min Rain = 0
KMC4 242342Z 11015KT 17/M07 A3017 RMK A01 T01731072  RH  018%=      5-min Rain = 0
KMC4 242343Z 12015KT 17/M07 A3017 RMK A01 T01731073  RH  018%=      5-min Rain = 0
KMC4 242344Z 12015KT 17/M07 A3017 RMK A01 T01731074  RH  018%=      5-min Rain = 0
KMC4 242345Z 12012KT 17/M08 A3017 RMK A01 T01721075  RH  018%=      5-min Rain = 0
KMC4 242346Z 12011KT 17/M07 A3017 RMK A01 T01721073  RH  018%=      5-min Rain = 0
KMC4 242347Z 11014KT 17/M07 A3017 RMK A01 T01721074  RH  018%=      5-min Rain = 0
KMC4 242348Z 11014KT 17/M07 A3017 RMK A01 T01731074  RH  018%=      5-min Rain = 0
KMC4 242349Z 12015KT 17/M07 A3017 RMK A01 T01721074  RH  018%=      5-min Rain = 0
KMC4 242350Z 13014KT 17/M07 A3017 RMK A01 T01721072  RH  018%=      5-min Rain = 0
KMC4 242351Z 13013KT 17/M07 A3017 RMK A01 T01731071  RH  018%=      5-min Rain = 0
KMC4 242352Z 13012KT 17/M07 A3017 RMK A01 T01731072  RH  018%=      5-min Rain = 0
KMC4 242353Z 12013KT 17/M07 A3017 RMK A01 T01731073  RH  018%=      5-min Rain = 0
KMC4 242354Z 13014KT 17/M08 A3017 RMK A01 T01721075  RH  018%=      5-min Rain = 0
KMC4 242355Z 12012KT 17/M08 A3017 RMK A01 T01711075  RH  018%=      5-min Rain = 0
KMC4 242356Z 12013KT 17/M08 A3017 RMK A01 T01711075  RH  018%=      5-min Rain = 0
KMC4 242357Z 12013KT 17/M07 A3017 RMK A01 T01711073  RH  018%=      5-min Rain = 0
KMC4 242358Z 12011G16KT 17/M07 A3017 RMK A01 T01711073  RH  018%=      5-min Rain = 0
KMC4 242359Z 12010KT 17/M07 A3017 RMK A01 T01711073  RH  018%=      5-min Rain = 0
KMC4 250000Z 12010KT 17/M07 A3017 RMK A01 T01711072  RH  018%=      5-min Rain = 0
KMC4 250001Z 12011KT 17/M07 A3017 RMK A01 T01701072  RH  018%=      5-min Rain = 0
KMC4 250002Z 13014KT 17/M07 A3017 RMK A01 T01711072  RH  018%=      5-min Rain = 0
KMC4 250003Z 14014KT 17/M07 A3017 RMK A01 T01711074  RH  018%=      5-min Rain = 0
KMC4 250004Z 14014KT 17/M08 A3017 RMK A01 T01701075  RH  018%=      5-min Rain = 0
KMC4 250005Z 13011KT 17/M07 A3017 RMK A01 T01701074  RH  018%=      5-min Rain = 0
KMC4 250006Z 14013KT 17/M07 A3017 RMK A01 T01701073  RH  018%=      5-min Rain = 0
KMC4 250007Z 14011KT 17/M07 A3017 RMK A01 T01701074  RH  018%=      5-min Rain = 0
KMC4 250008Z 14010KT 17/M07 A3017 RMK A01 T01691074  RH  018%=      5-min Rain = 0
KMC4 250009Z 13013KT 17/M07 A3017 RMK A01 T01691073  RH  018%=      5-min Rain = 0
KMC4 250010Z 14014KT 17/M08 A3017 RMK A01 T01691075  RH  018%=      5-min Rain = 0
KMC4 250011Z 14013KT 17/M08 A3017 RMK A01 T01681076  RH  018%=      5-min Rain = 0
KMC4 250012Z 13013KT 17/M08 A3017 RMK A01 T01681076  RH  018%=      5-min Rain = 0
KMC4 250013Z 14011KT 17/M08 A3017 RMK A01 T01671076  RH  018%=      5-min Rain = 0
KMC4 250014Z 13011KT 17/M08 A3017 RMK A01 T01671075  RH  018%=      5-min Rain = 0
KMC4 250015Z 13014KT 17/M08 A3017 RMK A01 T01671076  RH  018%=      5-min Rain = 0
KMC4 250016Z 12012KT 17/M08 A3017 RMK A01 T01661076  RH  018%=      5-min Rain = 0
KMC4 250017Z 13015KT 17/M08 A3017 RMK A01 T01661077  RH  018%=      5-min Rain = 0
KMC4 250018Z 13014KT 17/M08 A3017 RMK A01 T01661077  RH  018%=      5-min Rain = 0
KMC4 250019Z 13013KT 17/M08 A3017 RMK A01 T01661077  RH  018%=      5-min Rain = 0
KMC4 250020Z 13011KT 17/M08 A3017 RMK A01 T01651076  RH  018%=      5-min Rain = 0
KMC4 250021Z 13011KT 16/M08 A3017 RMK A01 T01641076  RH  019%=      5-min Rain = 0
KMC4 250022Z 12013KT 16/M08 A3017 RMK A01 T01631076  RH  019%=      5-min Rain = 0
KMC4 250023Z 13014KT 16/M08 A3017 RMK A01 T01631077  RH  018%=      5-min Rain = 0
KMC4 250024Z 12014KT 16/M08 A3017 RMK A01 T01631078  RH  018%=      5-min Rain = 0
KMC4 250025Z 12012KT 16/M08 A3017 RMK A01 T01631078  RH  018%=      5-min Rain = 0
KMC4 250026Z 12011KT 16/M08 A3017 RMK A01 T01631077  RH  019%=      5-min Rain = 0
KMC4 250027Z 12013KT 16/M08 A3017 RMK A01 T01621077  RH  019%=      5-min Rain = 0
KMC4 250028Z 12010KT 16/M08 A3017 RMK A01 T01621077  RH  019%=      5-min Rain = 0
KMC4 250029Z 12010KT 16/M08 A3017 RMK A01 T01621075  RH  019%=      5-min Rain = 0
KMC4 250030Z 12011G16KT 16/M08 A3017 RMK A01 T01611075  RH  019%=      5-min Rain = 0
KMC4 250031Z 12012KT 16/M08 A3017 RMK A01 T01601075  RH  019%=      5-min Rain = 0
KMC4 250032Z 12013KT 16/M08 A3017 RMK A01 T01601075  RH  019%=      5-min Rain = 0
KMC4 250033Z 12012KT 16/M08 A3017 RMK A01 T01601075  RH  019%=      5-min Rain = 0
KMC4 250034Z 12010KT 16/M07 A3017 RMK A01 T01601074  RH  019%=      5-min Rain = 0
KMC4 250035Z 12009KT 16/M07 A3017 RMK A01 T01591074  RH  020%=      5-min Rain = 0
KMC4 250036Z 12009KT 16/M07 A3017 RMK A01 T01581074  RH  020%=      5-min Rain = 0
KMC4 250037Z 11011KT 16/M07 A3017 RMK A01 T01571074  RH  020%=      5-min Rain = 0
KMC4 250038Z 12011KT 16/M07 A3017 RMK A01 T01581074  RH  020%=      5-min Rain = 0
KMC4 250039Z 13011KT 16/M07 A3017 RMK A01 T01571074  RH  020%=      5-min Rain = 0
KMC4 250040Z 13010KT 16/M07 A3017 RMK A01 T01571073  RH  020%=      5-min Rain = 0
KMC4 250041Z 12011KT 16/M07 A3017 RMK A01 T01561073  RH  020%=      5-min Rain = 0
KMC4 250042Z 13010KT 16/M07 A3017 RMK A01 T01561073  RH  020%=      5-min Rain = 0
KMC4 250043Z 13009KT 16/M07 A3017 RMK A01 T01551073  RH  020%=      5-min Rain = 0
KMC4 250044Z 12009KT 15/M07 A3017 RMK A01 T01541073  RH  020%=      5-min Rain = 0
KMC4 250045Z 12010KT 15/M07 A3017 RMK A01 T01531074  RH  020%=      5-min Rain = 0
KMC4 250046Z 12009KT 15/M07 A3017 RMK A01 T01531073  RH  020%=      5-min Rain = 0
KMC4 250047Z 12008KT 15/M07 A3017 RMK A01 T01521073  RH  020%=      5-min Rain = 0
KMC4 250048Z 12009KT 15/M07 A3017 RMK A01 T01511073  RH  021%=      5-min Rain = 0
KMC4 250049Z 12008KT 15/M07 A3017 RMK A01 T01511074  RH  021%=      5-min Rain = 0
KMC4 250050Z 12008KT 15/M07 A3017 RMK A01 T01501073  RH  021%=      5-min Rain = 0
KMC4 250051Z 12008KT 15/M07 A3017 RMK A01 T01491073  RH  021%=      5-min Rain = 0
KMC4 250052Z 12007KT 15/M07 A3017 RMK A01 T01491073  RH  021%=      5-min Rain = 0
KMC4 250053Z 12007KT 15/M07 A3017 RMK A01 T01491072  RH  021%=      5-min Rain = 0
KMC4 250054Z 11007KT 15/M07 A3017 RMK A01 T01481072  RH  021%=      5-min Rain = 0
KMC4 250055Z 11008KT 15/M07 A3017 RMK A01 T01481073  RH  021%=      5-min Rain = 0
KMC4 250056Z 11008KT 15/M07 A3017 RMK A01 T01481072  RH  021%=      5-min Rain = 0
KMC4 250057Z 11007KT 15/M07 A3017 RMK A01 T01481072  RH  021%=      5-min Rain = 0
KMC4 250058Z 11007KT 15/M07 A3017 RMK A01 T01471072  RH  021%=      5-min Rain = 0
KMC4 250059Z 11008KT 15/M07 A3017 RMK A01 T01471072  RH  021%=      5-min Rain = 0
KMC4 250100Z 11008KT 15/M07 A3018 RMK A01 T01461072  RH  021%=      5-min Rain = 0
KMC4 250101Z 11007KT 15/M07 A3018 RMK A01 T01461072  RH  022%=      5-min Rain = 0
KMC4 250102Z 11007KT 15/M07 A3018 RMK A01 T01461071  RH  022%=      5-min Rain = 0
KMC4 250103Z 11008KT 15/M07 A3018 RMK A01 T01451071  RH  022%=      5-min Rain = 0
KMC4 250104Z 11007KT 14/M07 A3018 RMK A01 T01441071  RH  022%=      5-min Rain = 0
KMC4 250105Z 11007KT 14/M07 A3018 RMK A01 T01431070  RH  022%=      5-min Rain = 0
KMC4 250106Z 11007KT 14/M07 A3018 RMK A01 T01421071  RH  022%=      5-min Rain = 0
KMC4 250107Z 12006KT 14/M07 A3018 RMK A01 T01421070  RH  022%=      5-min Rain = 0
KMC4 250108Z 11007KT 14/M07 A3018 RMK A01 T01411070  RH  022%=      5-min Rain = 0
KMC4 250109Z 11007KT 14/M07 A3018 RMK A01 T01401070  RH  023%=      5-min Rain = 0
KMC4 250110Z 12006KT 14/M07 A3018 RMK A01 T01401070  RH  023%=      5-min Rain = 0
KMC4 250111Z 12006KT 14/M07 A3018 RMK A01 T01391069  RH  023%=      5-min Rain = 0
KMC4 250112Z 11007KT 14/M07 A3018 RMK A01 T01391069  RH  023%=      5-min Rain = 0
KMC4 250113Z 12007KT 14/M07 A3018 RMK A01 T01381070  RH  023%=      5-min Rain = 0
KMC4 250114Z 12006KT 14/M07 A3018 RMK A01 T01381069  RH  023%=      5-min Rain = 0
KMC4 250115Z 12007KT 14/M07 A3018 RMK A01 T01371070  RH  023%=      5-min Rain = 0
KMC4 250116Z 11006KT 14/M07 A3018 RMK A01 T01371069  RH  023%=      5-min Rain = 0
KMC4 250117Z 11007KT 14/M07 A3018 RMK A01 T01361069  RH  023%=      5-min Rain = 0
KMC4 250118Z 11007KT 14/M07 A3018 RMK A01 T01361069  RH  023%=      5-min Rain = 0
KMC4 250119Z 11007KT 14/M07 A3018 RMK A01 T01371069  RH  023%=      5-min Rain = 0
KMC4 250120Z 12007KT 14/M07 A3018 RMK A01 T01361069  RH  023%=      5-min Rain = 0
KMC4 250126Z 11007KT 14/M07 A3018 RMK A01 T01351070  RH  023%=      5-min Rain = 0
KMC4 250127Z 11006KT 14/M07 A3018 RMK A01 T01361069  RH  023%=      5-min Rain = 0
KMC4 250128Z 11007KT 14/M07 A3018 RMK A01 T01351070  RH  023%=      5-min Rain = 0
KMC4 250129Z 11007KT 14/M07 A3018 RMK A01 T01351069  RH  024%=      5-min Rain = 0
KMC4 250130Z 12007KT 13/M07 A3018 RMK A01 T01341070  RH  024%=      5-min Rain = 0
KMC4 250131Z 12008KT 13/M07 A3018 RMK A01 T01331070  RH  024%=      5-min Rain = 0
KMC4 250132Z 12007KT 13/M07 A3018 RMK A01 T01331070  RH  024%=      5-min Rain = 0
KMC4 250133Z 12006KT 13/M07 A3018 RMK A01 T01331070  RH  024%=      5-min Rain = 0
KMC4 250134Z 12006KT 13/M07 A3018 RMK A01 T01321070  RH  024%=      5-min Rain = 0
KMC4 250135Z 11006KT 13/M07 A3018 RMK A01 T01321070  RH  024%=      5-min Rain = 0
KMC4 250136Z 11006KT 13/M07 A3018 RMK A01 T01311070  RH  024%=      5-min Rain = 0
KMC4 250137Z 11006KT 13/M07 A3018 RMK A01 T01311070  RH  024%=      5-min Rain = 0
KMC4 250138Z 11005KT 13/M07 A3018 RMK A01 T01311069  RH  024%=      5-min Rain = 0
KMC4 250139Z 11005KT 13/M07 A3018 RMK A01 T01301070  RH  024%=      5-min Rain = 0
KMC4 250140Z 11005KT 13/M07 A3018 RMK A01 T01301070  RH  024%=      5-min Rain = 0
KMC4 250141Z 10006KT 13/M07 A3018 RMK A01 T01291070  RH  024%=      5-min Rain = 0
KMC4 250142Z 10006KT 13/M07 A3018 RMK A01 T01291070  RH  024%=      5-min Rain = 0
KMC4 250143Z 10005KT 13/M07 A3018 RMK A01 T01291070  RH  024%=      5-min Rain = 0
KMC4 250144Z 10005KT 13/M07 A3018 RMK A01 T01281070  RH  024%=      5-min Rain = 0
KMC4 250145Z 10005KT 13/M07 A3018 RMK A01 T01281071  RH  024%=      5-min Rain = 0
KMC4 250146Z 10005KT 13/M07 A3018 RMK A01 T01271071  RH  025%=      5-min Rain = 0
KMC4 250147Z 10004KT 13/M07 A3018 RMK A01 T01271071  RH  025%=      5-min Rain = 0
KMC4 250148Z 10005KT 13/M07 A3018 RMK A01 T01261071  RH  025%=      5-min Rain = 0
KMC4 250149Z 10005KT 13/M07 A3018 RMK A01 T01251071  RH  025%=      5-min Rain = 0
KMC4 250150Z 09004KT 12/M07 A3018 RMK A01 T01241070  RH  025%=      5-min Rain = 0
KMC4 250151Z 09005KT 12/M07 A3018 RMK A01 T01231070  RH  025%=      5-min Rain = 0
KMC4 250152Z 09004KT 12/M07 A3018 RMK A01 T01221070  RH  026%=      5-min Rain = 0
KMC4 250153Z 09005KT 12/M07 A3018 RMK A01 T01211070  RH  026%=      5-min Rain = 0
KMC4 250154Z 09005KT 12/M07 A3018 RMK A01 T01211070  RH  026%=      5-min Rain = 0
KMC4 250155Z 09005KT 12/M07 A3018 RMK A01 T01211070  RH  026%=      5-min Rain = 0
KMC4 250156Z 09005KT 12/M07 A3018 RMK A01 T01211071  RH  026%=      5-min Rain = 0
KMC4 250157Z 09005KT 12/M07 A3018 RMK A01 T01211070  RH  026%=      5-min Rain = 0
KMC4 250158Z 09005KT 12/M07 A3018 RMK A01 T01211071  RH  026%=      5-min Rain = 0
KMC4 250159Z 09005KT 12/M07 A3018 RMK A01 T01211071  RH  025%=      5-min Rain = 0
KMC4 250200Z 09005KT 12/M07 A3018 RMK A01 T01221070  RH  025%=      5-min Rain = 0
KMC4 250201Z 10005KT 12/M07 A3018 RMK A01 T01211071  RH  025%=      5-min Rain = 0
KMC4 250202Z 09005KT 12/M07 A3018 RMK A01 T01221071  RH  025%=      5-min Rain = 0
KMC4 250203Z 09005KT 12/M07 A3018 RMK A01 T01211071  RH  026%=      5-min Rain = 0
KMC4 250204Z 10005KT 12/M07 A3018 RMK A01 T01201071  RH  026%=      5-min Rain = 0
KMC4 250205Z 10005KT 12/M07 A3018 RMK A01 T01201071  RH  026%=      5-min Rain = 0
KMC4 250206Z 10005KT 12/M07 A3018 RMK A01 T01211070  RH  026%=      5-min Rain = 0
KMC4 250207Z 10006KT 12/M07 A3018 RMK A01 T01201071  RH  025%=      5-min Rain = 0
KMC4 250208Z 11005KT 12/M07 A3018 RMK A01 T01211071  RH  025%=      5-min Rain = 0
KMC4 250209Z 10005KT 12/M07 A3018 RMK A01 T01211071  RH  025%=      5-min Rain = 0
KMC4 250210Z 10006KT 12/M07 A3018 RMK A01 T01211071  RH  025%=      5-min Rain = 0
KMC4 250211Z 10006KT 12/M07 A3018 RMK A01 T01211072  RH  025%=      5-min Rain = 0
KMC4 250212Z 10007KT 12/M07 A3018 RMK A01 T01211071  RH  025%=      5-min Rain = 0
KMC4 250213Z 10006KT 12/M07 A3018 RMK A01 T01211072  RH  025%=      5-min Rain = 0
KMC4 250214Z 10006KT 12/M07 A3018 RMK A01 T01211071  RH  025%=      5-min Rain = 0
KMC4 250215Z 10006KT 12/M07 A3018 RMK A01 T01201072  RH  025%=      5-min Rain = 0
KMC4 250216Z 10006KT 12/M07 A3018 RMK A01 T01201071  RH  026%=      5-min Rain = 0
KMC4 250217Z 10006KT 12/M07 A3018 RMK A01 T01201071  RH  026%=      5-min Rain = 0
KMC4 250218Z 10006KT 12/M07 A3018 RMK A01 T01191072  RH  026%=      5-min Rain = 0
KMC4 250219Z 10006KT 12/M07 A3018 RMK A01 T01191072  RH  026%=      5-min Rain = 0
KMC4 250220Z 10006KT 12/M07 A3018 RMK A01 T01191072  RH  026%=      5-min Rain = 0
KMC4 250221Z 10006KT 12/M07 A3018 RMK A01 T01191072  RH  026%=      5-min Rain = 0
KMC4 250222Z 10006KT 12/M07 A3018 RMK A01 T01191072  RH  026%=      5-min Rain = 0
KMC4 250223Z 10006KT 12/M07 A3018 RMK A01 T01191072  RH  026%=      5-min Rain = 0
KMC4 250224Z 10006KT 12/M07 A3018 RMK A01 T01191072  RH  026%=      5-min Rain = 0
KMC4 250225Z 10006KT 12/M07 A3018 RMK A01 T01191072  RH  026%=      5-min Rain = 0
KMC4 250226Z 10006KT 12/M07 A3018 RMK A01 T01181072  RH  026%=      5-min Rain = 0
KMC4 250227Z 10006KT 12/M07 A3018 RMK A01 T01181072  RH  026%=      5-min Rain = 0
KMC4 250228Z 10007KT 12/M07 A3019 RMK A01 T01171072  RH  026%=      5-min Rain = 0
KMC4 250229Z 10006KT 12/M07 A3019 RMK A01 T01171071  RH  026%=      5-min Rain = 0
KMC4 250230Z 10006KT 12/M07 A3019 RMK A01 T01171071  RH  026%=      5-min Rain = 0
KMC4 250231Z 10007KT 12/M07 A3019 RMK A01 T01161072  RH  026%=      5-min Rain = 0
KMC4 250232Z 10006KT 12/M07 A3018 RMK A01 T01151071  RH  026%=      5-min Rain = 0
KMC4 250233Z 10006KT 12/M07 A3018 RMK A01 T01151072  RH  026%=      5-min Rain = 0
KMC4 250234Z 10006KT 12/M07 A3019 RMK A01 T01151072  RH  026%=      5-min Rain = 0
KMC4 250235Z 10006KT 12/M07 A3019 RMK A01 T01151072  RH  026%=      5-min Rain = 0
KMC4 250236Z 10006KT 12/M07 A3019 RMK A01 T01151071  RH  026%=      5-min Rain = 0
KMC4 250237Z 10006KT 12/M07 A3019 RMK A01 T01151072  RH  026%=      5-min Rain = 0
KMC4 250238Z 10006KT 12/M07 A3019 RMK A01 T01151072  RH  026%=      5-min Rain = 0
KMC4 250239Z 10006KT 12/M07 A3019 RMK A01 T01151071  RH  026%=      5-min Rain = 0
KMC4 250240Z 10007KT 11/M07 A3019 RMK A01 T01141071  RH  027%=      5-min Rain = 0
KMC4 250241Z 11007KT 11/M07 A3019 RMK A01 T01131071  RH  027%=      5-min Rain = 0
KMC4 250242Z 11007KT 11/M07 A3019 RMK A01 T01131072  RH  027%=      5-min Rain = 0
KMC4 250243Z 11006KT 11/M07 A3019 RMK A01 T01131071  RH  027%=      5-min Rain = 0
KMC4 250244Z 11006KT 11/M07 A3019 RMK A01 T01121071  RH  027%=      5-min Rain = 0
KMC4 250245Z 11006KT 11/M07 A3019 RMK A01 T01121071  RH  027%=      5-min Rain = 0
KMC4 250246Z 11007KT 11/M07 A3019 RMK A01 T01121071  RH  027%=      5-min Rain = 0
KMC4 250247Z 12007KT 11/M07 A3019 RMK A01 T01121071  RH  027%=      5-min Rain = 0
KMC4 250248Z 12007KT 11/M07 A3019 RMK A01 T01121071  RH  027%=      5-min Rain = 0
KMC4 250249Z 12006KT 11/M07 A3019 RMK A01 T01121071  RH  027%=      5-min Rain = 0
KMC4 250250Z 12006KT 11/M07 A3019 RMK A01 T01121071  RH  027%=      5-min Rain = 0
KMC4 250251Z 12006KT 11/M07 A3019 RMK A01 T01121071  RH  027%=      5-min Rain = 0
KMC4 250252Z 12006KT 11/M07 A3019 RMK A01 T01121071  RH  027%=      5-min Rain = 0
KMC4 250253Z 12005KT 11/M07 A3019 RMK A01 T01121071  RH  027%=      5-min Rain = 0
KMC4 250254Z 12006KT 11/M07 A3019 RMK A01 T01121071  RH  027%=      5-min Rain = 0
KMC4 250255Z 12006KT 11/M07 A3019 RMK A01 T01111071  RH  027%=      5-min Rain = 0
KMC4 250256Z 12006KT 11/M07 A3019 RMK A01 T01111071  RH  027%=      5-min Rain = 0
KMC4 250257Z 12006KT 11/M07 A3019 RMK A01 T01111071  RH  027%=      5-min Rain = 0
KMC4 250258Z 12006KT 11/M07 A3019 RMK A01 T01111071  RH  027%=      5-min Rain = 0
KMC4 250259Z 12006KT 11/M07 A3019 RMK A01 T01111071  RH  027%=      5-min Rain = 0
KMC4 250300Z 12006KT 11/M07 A3019 RMK A01 T01121071  RH  027%=      5-min Rain = 0
KMC4 250301Z 11005KT 11/M07 A302 RMK A01 T01121071  RH  027%=      5-min Rain = 0
KMC4 250302Z 11004KT 11/M07 A3019 RMK A01 T01121071  RH  027%=      5-min Rain = 0
KMC4 250303Z 10004KT 11/M07 A302 RMK A01 T01121071  RH  027%=      5-min Rain = 0
KMC4 250304Z 10005KT 11/M07 A302 RMK A01 T01111071  RH  027%=      5-min Rain = 0
KMC4 250305Z 09004KT 11/M07 A302 RMK A01 T01111071  RH  027%=      5-min Rain = 0
KMC4 250306Z 09005KT 11/M07 A302 RMK A01 T01101070  RH  027%=      5-min Rain = 0
KMC4 250307Z 09004KT 11/M07 A302 RMK A01 T01091071  RH  028%=      5-min Rain = 0
KMC4 250308Z 09005KT 11/M07 A302 RMK A01 T01081071  RH  028%=      5-min Rain = 0
KMC4 250309Z 10004KT 11/M07 A302 RMK A01 T01081071  RH  028%=      5-min Rain = 0
KMC4 250310Z 10004KT 11/M07 A302 RMK A01 T01091071  RH  028%=      5-min Rain = 0
KMC4 250311Z 09004KT 11/M07 A302 RMK A01 T01101071  RH  028%=      5-min Rain = 0
KMC4 250312Z 10005KT 11/M07 A302 RMK A01 T01101071  RH  027%=      5-min Rain = 0
KMC4 250313Z 10005KT 11/M07 A302 RMK A01 T01091071  RH  028%=      5-min Rain = 0
KMC4 250314Z 11006KT 11/M07 A302 RMK A01 T01101070  RH  028%=      5-min Rain = 0
KMC4 250315Z 11005KT 11/M07 A302 RMK A01 T01101071  RH  028%=      5-min Rain = 0
KMC4 250316Z 11005KT 11/M07 A302 RMK A01 T01101071  RH  027%=      5-min Rain = 0
KMC4 250317Z 11006KT 11/M07 A302 RMK A01 T01111071  RH  027%=      5-min Rain = 0
KMC4 250318Z 11005KT 11/M07 A302 RMK A01 T01111070  RH  027%=      5-min Rain = 0
KMC4 250319Z 11006KT 11/M07 A302 RMK A01 T01121070  RH  027%=      5-min Rain = 0
KMC4 250320Z 11006KT 11/M07 A302 RMK A01 T01111071  RH  027%=      5-min Rain = 0
KMC4 250321Z 11005KT 11/M07 A302 RMK A01 T01121071  RH  027%=      5-min Rain = 0
KMC4 250322Z 11006KT 11/M07 A302 RMK A01 T01121070  RH  027%=      5-min Rain = 0
KMC4 250323Z 11005KT 11/M07 A302 RMK A01 T01121070  RH  027%=      5-min Rain = 0
KMC4 250324Z 11005KT 11/M07 A302 RMK A01 T01121070  RH  027%=      5-min Rain = 0
KMC4 250325Z 11005KT 11/M07 A302 RMK A01 T01121070  RH  027%=      5-min Rain = 0
KMC4 250326Z 11005KT 11/M07 A302 RMK A01 T01111070  RH  027%=      5-min Rain = 0
KMC4 250327Z 11006KT 11/M07 A302 RMK A01 T01101070  RH  028%=      5-min Rain = 0
KMC4 250328Z 11005KT 11/M07 A302 RMK A01 T01091070  RH  028%=      5-min Rain = 0
KMC4 250329Z 11006KT 11/M07 A302 RMK A01 T01091070  RH  028%=      5-min Rain = 0
KMC4 250330Z 11006KT 11/M07 A302 RMK A01 T01081069  RH  028%=      5-min Rain = 0
KMC4 250331Z 11006KT 11/M07 A302 RMK A01 T01081069  RH  028%=      5-min Rain = 0
KMC4 250332Z 11006KT 11/M07 A302 RMK A01 T01071069  RH  028%=      5-min Rain = 0
KMC4 250333Z 11006KT 11/M07 A302 RMK A01 T01061068  RH  029%=      5-min Rain = 0
KMC4 250334Z 11006KT 11/M07 A302 RMK A01 T01051069  RH  029%=      5-min Rain = 0
KMC4 250335Z 11006KT 10/M07 A302 RMK A01 T01041068  RH  029%=      5-min Rain = 0
KMC4 250336Z 11006KT 10/M07 A302 RMK A01 T01041068  RH  029%=      5-min Rain = 0
KMC4 250337Z 11006KT 10/M07 A302 RMK A01 T01031068  RH  029%=      5-min Rain = 0
KMC4 250338Z 11006KT 10/M07 A302 RMK A01 T01031067  RH  029%=      5-min Rain = 0
KMC4 250339Z 11007KT 10/M07 A302 RMK A01 T01031068  RH  029%=      5-min Rain = 0
KMC4 250340Z 11006KT 10/M07 A302 RMK A01 T01041068  RH  029%=      5-min Rain = 0
KMC4 250341Z 11006KT 11/M07 A302 RMK A01 T01051067  RH  029%=      5-min Rain = 0
KMC4 250342Z 11005KT 11/M07 A302 RMK A01 T01051067  RH  029%=      5-min Rain = 0
KMC4 250343Z 12007KT 11/M07 A302 RMK A01 T01051067  RH  029%=      5-min Rain = 0
KMC4 250344Z 11006KT 11/M07 A302 RMK A01 T01051066  RH  029%=      5-min Rain = 0
KMC4 250345Z 11006KT 11/M07 A302 RMK A01 T01051066  RH  029%=      5-min Rain = 0
KMC4 250346Z 11005KT 11/M07 A302 RMK A01 T01051065  RH  029%=      5-min Rain = 0
KMC4 250347Z 11006KT 11/M07 A302 RMK A01 T01051065  RH  030%=      5-min Rain = 0
KMC4 250348Z 11006KT 11/M07 A302 RMK A01 T01051065  RH  030%=      5-min Rain = 0
KMC4 250349Z 11006KT 10/M07 A302 RMK A01 T01041065  RH  030%=      5-min Rain = 0
KMC4 250350Z 11006KT 10/M07 A302 RMK A01 T01041065  RH  030%=      5-min Rain = 0
KMC4 250351Z 11006KT 10/M06 A302 RMK A01 T01031064  RH  030%=      5-min Rain = 0
KMC4 250352Z 11007KT 10/M06 A302 RMK A01 T01041064  RH  030%=      5-min Rain = 0
KMC4 250353Z 11007KT 10/M06 A302 RMK A01 T01031064  RH  030%=      5-min Rain = 0
KMC4 250354Z 11007KT 10/M06 A302 RMK A01 T01031063  RH  030%=      5-min Rain = 0
KMC4 250355Z 11007KT 10/M06 A302 RMK A01 T01021063  RH  031%=      5-min Rain = 0
KMC4 250356Z 11007KT 10/M06 A302 RMK A01 T01021062  RH  031%=      5-min Rain = 0
KMC4 250357Z 12007KT 10/M06 A302 RMK A01 T01021062  RH  031%=      5-min Rain = 0
KMC4 250358Z 11007KT 10/M06 A302 RMK A01 T01021061  RH  031%=      5-min Rain = 0
KMC4 250359Z 11007KT 10/M06 A302 RMK A01 T01021060  RH  031%=      5-min Rain = 0
KMC4 250400Z 11007KT 10/M06 A302 RMK A01 T01031059  RH  031%=      5-min Rain = 0
KMC4 250401Z 11007KT 10/M06 A302 RMK A01 T01041059  RH  031%=      5-min Rain = 0
KMC4 250402Z 12008KT 10/M06 A302 RMK A01 T01041059  RH  031%=      5-min Rain = 0
KMC4 250403Z 11009KT 10/M06 A302 RMK A01 T01041058  RH  031%=      5-min Rain = 0
KMC4 250404Z 12009KT 11/M06 A302 RMK A01 T01051057  RH  032%=      5-min Rain = 0
KMC4 250405Z 12009KT 11/M06 A302 RMK A01 T01071056  RH  031%=      5-min Rain = 0
KMC4 250406Z 12009KT 11/M06 A302 RMK A01 T01071056  RH  031%=      5-min Rain = 0
KMC4 250407Z 12010KT 11/M05 A302 RMK A01 T01081054  RH  031%=      5-min Rain = 0
KMC4 250408Z 12009KT 11/M05 A302 RMK A01 T01091054  RH  031%=      5-min Rain = 0
KMC4 250409Z 13009KT 11/M05 A302 RMK A01 T01101054  RH  031%=      5-min Rain = 0
KMC4 250410Z 13009KT 11/M05 A302 RMK A01 T01101053  RH  031%=      5-min Rain = 0
KMC4 250411Z 13011KT 11/M05 A302 RMK A01 T01101053  RH  031%=      5-min Rain = 0
KMC4 250412Z 13009KT 11/M05 A302 RMK A01 T01111052  RH  032%=      5-min Rain = 0
KMC4 250413Z 13010KT 11/M05 A302 RMK A01 T01111052  RH  032%=      5-min Rain = 0
KMC4 250414Z 13010KT 11/M05 A302 RMK A01 T01111052  RH  032%=      5-min Rain = 0
KMC4 250415Z 13011KT 11/M05 A302 RMK A01 T01121051  RH  032%=      5-min Rain = 0
KMC4 250416Z 13010KT 11/M05 A302 RMK A01 T01131050  RH  032%=      5-min Rain = 0
KMC4 250417Z 13010KT 11/M05 A302 RMK A01 T01131050  RH  031%=      5-min Rain = 0
KMC4 250418Z 13011KT 11/M05 A302 RMK A01 T01141050  RH  032%=      5-min Rain = 0
KMC4 250419Z 13012KT 11/M05 A302 RMK A01 T01141049  RH  032%=      5-min Rain = 0
KMC4 250420Z 13010KT 11/M05 A302 RMK A01 T01141048  RH  032%=      5-min Rain = 0
KMC4 250421Z 13011KT 11/M05 A302 RMK A01 T01141048  RH  032%=      5-min Rain = 0
KMC4 250422Z 13012KT 12/M05 A302 RMK A01 T01151047  RH  032%=      5-min Rain = 0
KMC4 250423Z 13009KT 12/M05 A302 RMK A01 T01151047  RH  032%=      5-min Rain = 0
KMC4 250424Z 13011KT 12/M05 A302 RMK A01 T01151047  RH  032%=      5-min Rain = 0
KMC4 250425Z 12010KT 12/M05 A302 RMK A01 T01151046  RH  032%=      5-min Rain = 0
KMC4 250426Z 12010KT 12/M05 A302 RMK A01 T01161046  RH  032%=      5-min Rain = 0
KMC4 250427Z 13011KT 12/M05 A302 RMK A01 T01161046  RH  032%=      5-min Rain = 0
KMC4 250428Z 13010KT 12/M05 A302 RMK A01 T01161046  RH  032%=      5-min Rain = 0
KMC4 250429Z 13011KT 12/M05 A302 RMK A01 T01161046  RH  032%=      5-min Rain = 0
KMC4 250430Z 12010KT 12/M05 A302 RMK A01 T01161046  RH  032%=      5-min Rain = 0
KMC4 250431Z 12009KT 12/M05 A302 RMK A01 T01161046  RH  032%=      5-min Rain = 0
KMC4 250432Z 12010KT 12/M05 A3019 RMK A01 T01161047  RH  032%=      5-min Rain = 0
KMC4 250433Z 12010KT 12/M05 A3019 RMK A01 T01161047  RH  032%=      5-min Rain = 0
KMC4 250434Z 12011KT 12/M05 A3019 RMK A01 T01171046  RH  032%=      5-min Rain = 0
KMC4 250435Z 12011KT 12/M05 A3019 RMK A01 T01161047  RH  032%=      5-min Rain = 0
KMC4 250436Z 12011KT 12/M05 A3019 RMK A01 T01151047  RH  032%=      5-min Rain = 0
KMC4 250437Z 12011KT 12/M05 A3019 RMK A01 T01151047  RH  032%=      5-min Rain = 0
KMC4 250438Z 12011KT 11/M05 A3019 RMK A01 T01141047  RH  032%=      5-min Rain = 0
KMC4 250439Z 12012KT 11/M05 A3019 RMK A01 T01141046  RH  032%=      5-min Rain = 0
KMC4 250440Z 13013KT 11/M05 A3019 RMK A01 T01141046  RH  032%=      5-min Rain = 0
KMC4 250441Z 13011KT 11/M05 A3019 RMK A01 T01141045  RH  032%=      5-min Rain = 0
KMC4 250442Z 12012KT 11/M05 A3019 RMK A01 T01141045  RH  032%=      5-min Rain = 0
KMC4 250443Z 13011KT 11/M05 A3019 RMK A01 T01141045  RH  033%=      5-min Rain = 0
KMC4 250444Z 12011KT 11/M05 A3019 RMK A01 T01141045  RH  033%=      5-min Rain = 0
KMC4 250445Z 12011KT 11/M04 A3019 RMK A01 T01141044  RH  033%=      5-min Rain = 0
KMC4 250446Z 12012KT 11/M05 A3019 RMK A01 T01141045  RH  033%=      5-min Rain = 0
KMC4 250447Z 12011KT 12/M04 A3019 RMK A01 T01151044  RH  033%=      5-min Rain = 0
KMC4 250448Z 13012KT 12/M04 A3019 RMK A01 T01151044  RH  033%=      5-min Rain = 0
KMC4 250449Z 12011KT 12/M04 A3019 RMK A01 T01151044  RH  033%=      5-min Rain = 0
KMC4 250450Z 13011KT 12/M04 A3019 RMK A01 T01151044  RH  033%=      5-min Rain = 0
KMC4 250451Z 12011KT 12/M04 A3019 RMK A01 T01151043  RH  033%=      5-min Rain = 0
KMC4 250452Z 12011KT 12/M04 A3019 RMK A01 T01151043  RH  033%=      5-min Rain = 0
KMC4 250453Z 13013KT 11/M04 A3019 RMK A01 T01141043  RH  033%=      5-min Rain = 0
KMC4 250454Z 12012KT 12/M04 A3019 RMK A01 T01151043  RH  033%=      5-min Rain = 0
KMC4 250455Z 13011KT 12/M04 A3019 RMK A01 T01151043  RH  033%=      5-min Rain = 0
KMC4 250456Z 13012KT 12/M04 A3019 RMK A01 T01151043  RH  033%=      5-min Rain = 0
KMC4 250457Z 12012KT 12/M04 A3019 RMK A01 T01151042  RH  033%=      5-min Rain = 0
KMC4 250458Z 13012KT 12/M04 A3019 RMK A01 T01151042  RH  033%=      5-min Rain = 0
KMC4 250459Z 12013KT 12/M04 A3019 RMK A01 T01151042  RH  033%=      5-min Rain = 0
KMC4 250500Z 12012KT 12/M04 A3019 RMK A01 T01151042  RH  033%=      5-min Rain = 0
KMC4 250501Z 12012KT 12/M04 A3019 RMK A01 T01161042  RH  033%=      5-min Rain = 0
KMC4 250502Z 12014KT 12/M04 A3019 RMK A01 T01161041  RH  033%=      5-min Rain = 0
KMC4 250503Z 12012KT 12/M04 A3019 RMK A01 T01161041  RH  033%=      5-min Rain = 0
KMC4 250504Z 12012KT 12/M04 A3019 RMK A01 T01171041  RH  033%=      5-min Rain = 0
KMC4 250505Z 12012KT 12/M04 A3019 RMK A01 T01161041  RH  033%=      5-min Rain = 0
KMC4 250506Z 12011KT 12/M04 A3019 RMK A01 T01161041  RH  033%=      5-min Rain = 0
KMC4 250507Z 12013KT 12/M04 A3019 RMK A01 T01161041  RH  033%=      5-min Rain = 0
KMC4 250508Z 12012KT 12/M04 A3019 RMK A01 T01161041  RH  033%=      5-min Rain = 0
KMC4 250509Z 13012G17KT 12/M04 A3019 RMK A01 T01161041  RH  033%=      5-min Rain = 0
KMC4 250510Z 12013KT 12/M04 A3019 RMK A01 T01161041  RH  033%=      5-min Rain = 0
KMC4 250511Z 12012KT 12/M04 A3019 RMK A01 T01161040  RH  033%=      5-min Rain = 0
KMC4 250512Z 12012KT 12/M04 A3019 RMK A01 T01161040  RH  033%=      5-min Rain = 0
KMC4 250513Z 12013KT 12/M04 A3019 RMK A01 T01151040  RH  033%=      5-min Rain = 0
KMC4 250514Z 12013KT 12/M04 A3018 RMK A01 T01161040  RH  033%=      5-min Rain = 0
KMC4 250515Z 13011KT 12/M04 A3018 RMK A01 T01161040  RH  033%=      5-min Rain = 0
KMC4 250516Z 12012KT 12/M04 A3018 RMK A01 T01151040  RH  033%=      5-min Rain = 0
KMC4 250517Z 12011KT 12/M04 A3018 RMK A01 T01151040  RH  034%=      5-min Rain = 0
KMC4 250518Z 12011KT 12/M04 A3018 RMK A01 T01151040  RH  034%=      5-min Rain = 0
KMC4 250519Z 12011KT 12/M04 A3018 RMK A01 T01151040  RH  034%=      5-min Rain = 0
KMC4 250520Z 12012KT 12/M04 A3018 RMK A01 T01151040  RH  034%=      5-min Rain = 0
KMC4 250521Z 12013KT 12/M04 A3018 RMK A01 T01151040  RH  034%=      5-min Rain = 0
KMC4 250522Z 12013KT 12/M04 A3018 RMK A01 T01151041  RH  033%=      5-min Rain = 0
KMC4 250523Z 12014KT 12/M04 A3018 RMK A01 T01151041  RH  033%=      5-min Rain = 0
KMC4 250524Z 12012KT 12/M04 A3018 RMK A01 T01151041  RH  033%=      5-min Rain = 0
KMC4 250525Z 12012KT 12/M04 A3018 RMK A01 T01151040  RH  033%=      5-min Rain = 0
KMC4 250526Z 12013KT 12/M04 A3018 RMK A01 T01151040  RH  034%=      5-min Rain = 0
KMC4 250527Z 12013KT 12/M04 A3018 RMK A01 T01151040  RH  034%=      5-min Rain = 0
KMC4 250528Z 12012KT 12/M04 A3018 RMK A01 T01151040  RH  034%=      5-min Rain = 0
KMC4 250529Z 13012KT 11/M04 A3018 RMK A01 T01141040  RH  034%=      5-min Rain = 0
KMC4 250530Z 12012KT 11/M04 A3018 RMK A01 T01141040  RH  034%=      5-min Rain = 0
KMC4 250531Z 12012KT 11/M04 A3018 RMK A01 T01131040  RH  034%=      5-min Rain = 0
KMC4 250532Z 12011KT 11/M04 A3018 RMK A01 T01131040  RH  034%=      5-min Rain = 0
KMC4 250533Z 13010KT 11/M04 A3018 RMK A01 T01131040  RH  034%=      5-min Rain = 0
KMC4 250534Z 13011KT 11/M04 A3018 RMK A01 T01121040  RH  034%=      5-min Rain = 0
KMC4 250535Z 12012KT 11/M04 A3018 RMK A01 T01121040  RH  034%=      5-min Rain = 0
KMC4 250536Z 12014KT 11/M04 A3018 RMK A01 T01121040  RH  034%=      5-min Rain = 0
KMC4 250537Z 12013KT 11/M04 A3018 RMK A01 T01131040  RH  034%=      5-min Rain = 0
KMC4 250538Z 13013KT 11/M04 A3018 RMK A01 T01131040  RH  034%=      5-min Rain = 0
KMC4 250539Z 12013KT 11/M04 A3018 RMK A01 T01131040  RH  034%=      5-min Rain = 0
KMC4 250540Z 13013KT 11/M04 A3018 RMK A01 T01131040  RH  034%=      5-min Rain = 0
KMC4 250541Z 12011KT 11/M04 A3018 RMK A01 T01131040  RH  034%=      5-min Rain = 0
KMC4 250542Z 12014KT 11/M04 A3018 RMK A01 T01121040  RH  034%=      5-min Rain = 0
KMC4 250543Z 12012KT 11/M04 A3018 RMK A01 T01121040  RH  034%=      5-min Rain = 0
KMC4 250544Z 13014KT 11/M04 A3018 RMK A01 T01131040  RH  034%=      5-min Rain = 0
KMC4 250545Z 13011KT 11/M04 A3017 RMK A01 T01121040  RH  034%=      5-min Rain = 0
KMC4 250546Z 13011KT 11/M04 A3017 RMK A01 T01121040  RH  034%=      5-min Rain = 0
KMC4 250547Z 13013KT 11/M04 A3017 RMK A01 T01121040  RH  034%=      5-min Rain = 0
KMC4 250548Z 13014KT 11/M04 A3017 RMK A01 T01121040  RH  034%=      5-min Rain = 0
KMC4 250549Z 13013KT 11/M04 A3017 RMK A01 T01121040  RH  034%=      5-min Rain = 0
KMC4 250550Z 13014KT 11/M04 A3017 RMK A01 T01121040  RH  034%=      5-min Rain = 0
KMC4 250551Z 13015KT 11/M04 A3017 RMK A01 T01121040  RH  034%=      5-min Rain = 0
KMC4 250552Z 13013KT 11/M04 A3017 RMK A01 T01121040  RH  034%=      5-min Rain = 0
KMC4 250553Z 12012KT 11/M04 A3017 RMK A01 T01121040  RH  034%=      5-min Rain = 0
KMC4 250554Z 13014KT 11/M04 A3017 RMK A01 T01121040  RH  034%=      5-min Rain = 0
KMC4 250555Z 13014KT 11/M04 A3017 RMK A01 T01121040  RH  034%=      5-min Rain = 0
KMC4 250556Z 13013KT 11/M04 A3017 RMK A01 T01121040  RH  034%=      5-min Rain = 0
KMC4 250557Z 12012KT 11/M04 A3017 RMK A01 T01121041  RH  034%=      5-min Rain = 0
KMC4 250558Z 13015KT 11/M04 A3017 RMK A01 T01121041  RH  034%=      5-min Rain = 0
KMC4 250559Z 13013KT 11/M04 A3017 RMK A01 T01121041  RH  034%=      5-min Rain = 0

Page generated in 0.1406 seconds.